Wetterdaten: Mittwoch, 27.03.2019
Datum Zeit Temp. Aussen Temp. o. S. +5cm Feuchte Auss Luftdruck Regen Sonnenschein Regendauer Solar Windben Empfang
27.03.2019 00:00 6,8 C 6,1 C 5,6 C 83 % 1029,4 hPa 0,0 l/m 0 min 0 min 0 W/m 3,2 km/h (1 Bft) 97,87 %
27.03.2019 00:02 6,9 C 6,1 C 5,6 C 83 % 1029,5 hPa 0,0 l/m 0 min 0 min 0 W/m 3,2 km/h (1 Bft) 97,67 %
27.03.2019 00:04 6,8 C 6,1 C 5,6 C 83 % 1029,5 hPa 0,0 l/m 0 min 0 min 0 W/m 0,0 km/h (0 Bft) 100,00 %
27.03.2019 00:08 6,8 C 6,1 C 5,0 C 84 % 1029,6 hPa 0,0 l/m 0 min 0 min 0 W/m 0,0 km/h (0 Bft) 97,85 %
27.03.2019 00:10 6,8 C 6,1 C 5,0 C 83 % 1029,5 hPa 0,0 l/m 0 min 0 min 0 W/m 0,0 km/h (0 Bft) 97,87 %
27.03.2019 00:12 6,8 C 6,1 C 5,0 C 83 % 1029,5 hPa 0,0 l/m 0 min 0 min 0 W/m 0,0 km/h (0 Bft) 97,87 %
27.03.2019 00:14 6,8 C 6,1 C 5,0 C 83 % 1029,5 hPa 0,0 l/m 0 min 0 min 0 W/m 0,0 km/h (0 Bft) 97,87 %
27.03.2019 00:16 6,8 C 6,1 C 5,0 C 83 % 1029,5 hPa 0,0 l/m 0 min 0 min 0 W/m 0,0 km/h (0 Bft) 97,83 %
27.03.2019 00:18 6,8 C 6,1 C 5,0 C 83 % 1029,5 hPa 0,0 l/m 0 min 0 min 0 W/m 0,0 km/h (0 Bft) 93,62 %
27.03.2019 00:20 6,8 C 5,6 C 5,0 C 83 % 1029,5 hPa 0,0 l/m 0 min 0 min 0 W/m 0,0 km/h (0 Bft) 95,74 %
27.03.2019 00:22 6,7 C 5,6 C 5,0 C 83 % 1029,5 hPa 0,0 l/m 0 min 0 min 0 W/m 0,0 km/h (0 Bft) 95,74 %
27.03.2019 00:24 6,7 C 5,6 C 5,0 C 83 % 1029,5 hPa 0,0 l/m 0 min 0 min 0 W/m 0,0 km/h (0 Bft) 93,62 %
27.03.2019 00:26 6,7 C 5,6 C 5,0 C 83 % 1029,5 hPa 0,0 l/m 0 min 0 min 0 W/m 0,0 km/h (0 Bft) 95,74 %
27.03.2019 00:28 6,7 C 5,6 C 5,0 C 83 % 1029,5 hPa 0,0 l/m 0 min 0 min 0 W/m 0,0 km/h (0 Bft) 95,65 %
27.03.2019 00:30 6,7 C 5,6 C 5,0 C 83 % 1029,5 hPa 0,0 l/m 0 min 0 min 0 W/m 0,0 km/h (0 Bft) 93,62 %
27.03.2019 00:32 6,7 C 5,6 C 5,0 C 83 % 1029,6 hPa 0,0 l/m 0 min 0 min 0 W/m 0,0 km/h (0 Bft) 97,87 %
27.03.2019 00:34 6,7 C 5,6 C 5,0 C 83 % 1029,6 hPa 0,0 l/m 0 min 0 min 0 W/m 0,0 km/h (0 Bft) 93,62 %
27.03.2019 00:36 6,7 C 5,6 C 5,0 C 83 % 1029,5 hPa 0,0 l/m 0 min 0 min 0 W/m 0,0 km/h (0 Bft) 95,74 %
27.03.2019 00:38 6,7 C 5,6 C 5,0 C 83 % 1029,5 hPa 0,0 l/m 0 min 0 min 0 W/m 0,0 km/h (0 Bft) 95,74 %
27.03.2019 00:40 6,6 C 5,6 C 5,0 C 83 % 1029,5 hPa 0,0 l/m 0 min 0 min 0 W/m 0,0 km/h (0 Bft) 95,65 %
27.03.2019 00:42 6,6 C 5,6 C 5,0 C 83 % 1029,5 hPa 0,0 l/m 0 min 0 min 0 W/m 0,0 km/h (0 Bft) 93,62 %
27.03.2019 00:44 6,6 C 5,6 C 5,0 C 84 % 1029,5 hPa 0,0 l/m 0 min 0 min 0 W/m 0,0 km/h (0 Bft) 91,49 %
27.03.2019 00:46 6,6 C 5,6 C 5,0 C 84 % 1029,6 hPa 0,0 l/m 0 min 0 min 0 W/m 0,0 km/h (0 Bft) 95,74 %
27.03.2019 00:48 6,6 C 5,6 C 5,0 C 84 % 1029,5 hPa 0,0 l/m 0 min 0 min 0 W/m 0,0 km/h (0 Bft) 95,74 %
27.03.2019 00:50 6,6 C 5,6 C 5,0 C 84 % 1029,6 hPa 0,0 l/m 0 min 0 min 0 W/m 0,0 km/h (0 Bft) 95,74 %
27.03.2019 00:52 6,6 C 5,6 C 5,0 C 84 % 1029,5 hPa 0,0 l/m 0 min 0 min 0 W/m 0,0 km/h (0 Bft) 93,48 %
27.03.2019 00:54 6,6 C 5,6 C 5,0 C 84 % 1029,5 hPa 0,0 l/m 0 min 0 min 0 W/m 0,0 km/h (0 Bft) 95,74 %
27.03.2019 00:56 6,6 C 5,6 C 5,0 C 84 % 1029,5 hPa 0,0 l/m 0 min 0 min 0 W/m 0,0 km/h (0 Bft) 95,74 %
27.03.2019 00:58 6,5 C 5,6 C 5,0 C 84 % 1029,5 hPa 0,0 l/m 0 min 0 min 0 W/m 0,0 km/h (0 Bft) 91,49 %
27.03.2019 01:00 6,5 C 5,6 C 5,0 C 84 % 1029,6 hPa 0,0 l/m 0 min 0 min 0 W/m 0,0 km/h (0 Bft) 95,74 %
27.03.2019 01:02 6,5 C 5,6 C 5,0 C 84 % 1029,6 hPa 0,0 l/m 0 min 0 min 0 W/m 0,0 km/h (0 Bft) 93,62 %
27.03.2019 01:04 6,5 C 5,6 C 5,0 C 84 % 1029,5 hPa 0,0 l/m 0 min 0 min 0 W/m 0,0 km/h (0 Bft) 95,65 %
27.03.2019 01:06 6,5 C 5,6 C 5,0 C 84 % 1029,6 hPa 0,0 l/m 0 min 0 min 0 W/m 0,0 km/h (0 Bft) 97,87 %
27.03.2019 01:08 6,4 C 5,6 C 5,0 C 84 % 1029,6 hPa 0,0 l/m 0 min 0 min 0 W/m 0,0 km/h (0 Bft) 97,87 %
27.03.2019 01:10 6,4 C 5,6 C 4,4 C 84 % 1029,6 hPa 0,0 l/m 0 min 0 min 0 W/m 0,0 km/h (0 Bft) 97,87 %
27.03.2019 01:12 6,4 C 5,6 C 4,4 C 84 % 1029,6 hPa 0,0 l/m 0 min 0 min 0 W/m 0,0 km/h (0 Bft) 97,87 %
27.03.2019 01:14 6,4 C 5,6 C 4,4 C 84 % 1029,6 hPa 0,0 l/m 0 min 0 min 0 W/m 0,0 km/h (0 Bft) 97,87 %
27.03.2019 01:16 6,4 C 5,6 C 5,0 C 84 % 1029,6 hPa 0,0 l/m 0 min 0 min 0 W/m 0,0 km/h (0 Bft) 97,83 %
27.03.2019 01:18 6,4 C 5,6 C 5,0 C 84 % 1029,5 hPa 0,0 l/m 0 min 0 min 0 W/m 0,0 km/h (0 Bft) 97,87 %
27.03.2019 01:20 6,4 C 5,6 C 5,0 C 84 % 1029,5 hPa 0,0 l/m 0 min 0 min 0 W/m 0,0 km/h (0 Bft) 95,74 %
27.03.2019 01:22 6,4 C 5,6 C 5,0 C 84 % 1029,5 hPa 0,0 l/m 0 min 0 min 0 W/m 0,0 km/h (0 Bft) 97,87 %
27.03.2019 01:24 6,4 C 5,6 C 5,0 C 84 % 1029,5 hPa 0,0 l/m 0 min 0 min 0 W/m 0,0 km/h (0 Bft) 97,87 %
27.03.2019 01:26 6,4 C 5,6 C 5,0 C 84 % 1029,4 hPa 0,0 l/m 0 min 0 min 0 W/m 3,2 km/h (1 Bft) 97,87 %
27.03.2019 01:28 6,4 C 5,6 C 5,0 C 84 % 1029,5 hPa 0,0 l/m 0 min 0 min 0 W/m 3,2 km/h (1 Bft) 97,83 %
27.03.2019 01:30 6,4 C 5,6 C 5,0 C 84 % 1029,5 hPa 0,0 l/m 0 min 0 min 0 W/m 0,0 km/h (0 Bft) 97,87 %
27.03.2019 01:32 6,3 C 5,6 C 5,0 C 85 % 1029,4 hPa 0,0 l/m 0 min 0 min 0 W/m 0,0 km/h (0 Bft) 97,87 %
27.03.2019 01:34 6,3 C 5,6 C 5,0 C 85 % 1029,5 hPa 0,0 l/m 0 min 0 min 0 W/m 3,2 km/h (1 Bft) 97,87 %
27.03.2019 01:36 6,3 C 5,0 C 5,0 C 85 % 1029,4 hPa 0,0 l/m 0 min 0 min 0 W/m 3,2 km/h (1 Bft) 97,87 %
27.03.2019 01:38 6,3 C 5,0 C 5,0 C 85 % 1029,5 hPa 0,0 l/m 0 min 0 min 0 W/m 3,2 km/h (1 Bft) 97,87 %
27.03.2019 01:40 6,3 C 5,0 C 4,4 C 85 % 1029,5 hPa 0,0 l/m 0 min 0 min 0 W/m 3,2 km/h (1 Bft) 97,83 %
27.03.2019 01:42 6,3 C 5,0 C 5,0 C 85 % 1029,5 hPa 0,0 l/m 0 min 0 min 0 W/m 3,2 km/h (1 Bft) 97,87 %
27.03.2019 01:44 6,3 C 5,0 C 5,0 C 85 % 1029,5 hPa 0,0 l/m 0 min 0 min 0 W/m 3,2 km/h (1 Bft) 97,87 %
27.03.2019 01:46 6,3 C 5,0 C 5,0 C 85 % 1029,5 hPa 0,0 l/m 0 min 0 min 0 W/m 0,0 km/h (0 Bft) 97,87 %
27.03.2019 01:48 6,2 C 5,0 C 5,0 C 86 % 1029,5 hPa 0,0 l/m 0 min 0 min 0 W/m 0,0 km/h (0 Bft) 97,87 %
27.03.2019 01:50 6,2 C 5,0 C 5,0 C 86 % 1029,5 hPa 0,0 l/m 0 min 0 min 0 W/m 0,0 km/h (0 Bft) 97,83 %
27.03.2019 01:52 6,2 C 5,0 C 5,0 C 86 % 1029,5 hPa 0,0 l/m 0 min 0 min 0 W/m 0,0 km/h (0 Bft) 97,87 %
27.03.2019 01:54 6,2 C 5,0 C 5,0 C 86 % 1029,5 hPa 0,0 l/m 0 min 0 min 0 W/m 6,4 km/h (2 Bft) 100,00 %
27.03.2019 01:56 6,2 C 5,0 C 5,0 C 86 % 1029,5 hPa 0,0 l/m 0 min 0 min 0 W/m 3,2 km/h (1 Bft) 100,00 %
27.03.2019 01:58 6,2 C 5,0 C 5,0 C 86 % 1029,5 hPa 0,0 l/m 0 min 0 min 0 W/m 0,0 km/h (0 Bft) 100,00 %
27.03.2019 02:00 6,2 C 5,0 C 5,0 C 86 % 1029,4 hPa 0,0 l/m 0 min 0 min 0 W/m 0,0 km/h (0 Bft) 97,87 %
27.03.2019 02:02 6,2 C 5,0 C 5,0 C 86 % 1029,5 hPa 0,0 l/m 0 min 0 min 0 W/m 0,0 km/h (0 Bft) 100,00 %
27.03.2019 02:04 6,2 C 5,0 C 5,0 C 86 % 1029,5 hPa 0,0 l/m 0 min 0 min 0 W/m 3,2 km/h (1 Bft) 97,87 %
27.03.2019 02:06 6,2 C 5,0 C 5,0 C 87 % 1029,6 hPa 0,0 l/m 0 min 0 min 0 W/m 3,2 km/h (1 Bft) 97,87 %
27.03.2019 02:08 6,2 C 5,0 C 4,4 C 87 % 1029,6 hPa 0,0 l/m 0 min 0 min 0 W/m 0,0 km/h (0 Bft) 95,74 %
27.03.2019 02:10 6,1 C 5,0 C 5,0 C 87 % 1029,5 hPa 0,0 l/m 0 min 0 min 0 W/m 6,4 km/h (2 Bft) 97,87 %
27.03.2019 02:12 6,1 C 5,0 C 4,4 C 87 % 1029,5 hPa 0,0 l/m 0 min 0 min 0 W/m 3,2 km/h (1 Bft) 100,00 %
27.03.2019 02:14 6,1 C 5,0 C 4,4 C 87 % 1029,5 hPa 0,0 l/m 0 min 0 min 0 W/m 0,0 km/h (0 Bft) 100,00 %
27.03.2019 02:16 6,1 C 5,0 C 4,4 C 87 % 1029,5 hPa 0,0 l/m 0 min 0 min 0 W/m 0,0 km/h (0 Bft) 97,87 %
27.03.2019 02:18 6,1 C 5,0 C 5,0 C 87 % 1029,5 hPa 0,0 l/m 0 min 0 min 0 W/m 0,0 km/h (0 Bft) 95,74 %
27.03.2019 02:20 6,1 C 5,0 C 5,0 C 87 % 1029,5 hPa 0,0 l/m 0 min 0 min 0 W/m 9,7 km/h (2 Bft) 97,87 %
27.03.2019 02:22 6,1 C 5,0 C 5,0 C 87 % 1029,5 hPa 0,0 l/m 0 min 0 min 0 W/m 0,0 km/h (0 Bft) 100,00 %
27.03.2019 02:24 6,1 C 5,0 C 4,4 C 88 % 1029,5 hPa 0,0 l/m 0 min 0 min 0 W/m 0,0 km/h (0 Bft) 97,87 %
27.03.2019 02:26 6,1 C 5,0 C 4,4 C 88 % 1029,4 hPa 0,0 l/m 0 min 0 min 0 W/m 0,0 km/h (0 Bft) 93,48 %
27.03.2019 02:28 6,1 C 5,0 C 4,4 C 88 % 1029,5 hPa 0,0 l/m 0 min 0 min 0 W/m 0,0 km/h (0 Bft) 97,87 %
27.03.2019 02:30 6,1 C 5,0 C 4,4 C 88 % 1029,5 hPa 0,0 l/m 0 min 0 min 0 W/m 0,0 km/h (0 Bft) 97,87 %
27.03.2019 02:32 6,0 C 5,0 C 4,4 C 88 % 1029,5 hPa 0,0 l/m 0 min 0 min 0 W/m 0,0 km/h (0 Bft) 95,83 %
27.03.2019 02:34 6,0 C 5,0 C 4,4 C 88 % 1029,5 hPa 0,0 l/m 0 min 0 min 0 W/m 0,0 km/h (0 Bft) 97,87 %
27.03.2019 02:36 6,0 C 5,0 C 4,4 C 88 % 1029,6 hPa 0,0 l/m 0 min 0 min 0 W/m 0,0 km/h (0 Bft) 97,83 %
27.03.2019 02:38 6,0 C 5,0 C 4,4 C 88 % 1029,6 hPa 0,0 l/m 0 min 0 min 0 W/m 0,0 km/h (0 Bft) 97,87 %
27.03.2019 02:40 5,9 C 5,0 C 4,4 C 88 % 1029,5 hPa 0,0 l/m 0 min 0 min 0 W/m 0,0 km/h (0 Bft) 97,87 %
27.03.2019 02:42 5,9 C 5,0 C 4,4 C 88 % 1029,5 hPa 0,0 l/m 0 min 0 min 0 W/m 0,0 km/h (0 Bft) 97,87 %
27.03.2019 02:44 5,9 C 5,0 C 4,4 C 88 % 1029,5 hPa 0,0 l/m 0 min 0 min 0 W/m 0,0 km/h (0 Bft) 97,87 %
27.03.2019 02:46 5,9 C 5,0 C 4,4 C 88 % 1029,4 hPa 0,0 l/m 0 min 0 min 0 W/m 0,0 km/h (0 Bft) 95,74 %
27.03.2019 02:48 5,9 C 5,0 C 4,4 C 88 % 1029,5 hPa 0,0 l/m 0 min 0 min 0 W/m 0,0 km/h (0 Bft) 97,83 %
27.03.2019 02:50 5,9 C 5,0 C 4,4 C 88 % 1029,5 hPa 0,0 l/m 0 min 0 min 0 W/m 6,4 km/h (2 Bft) 95,74 %
27.03.2019 02:52 5,9 C 5,0 C 4,4 C 88 % 1029,5 hPa 0,0 l/m 0 min 0 min 0 W/m 0,0 km/h (0 Bft) 97,87 %
27.03.2019 02:54 5,9 C 5,0 C 4,4 C 88 % 1029,5 hPa 0,0 l/m 0 min 0 min 0 W/m 0,0 km/h (0 Bft) 97,87 %
27.03.2019 02:56 5,8 C 5,0 C 4,4 C 88 % 1029,6 hPa 0,0 l/m 0 min 0 min 0 W/m 0,0 km/h (0 Bft) 100,00 %
27.03.2019 02:58 5,8 C 5,0 C 4,4 C 89 % 1029,5 hPa 0,0 l/m 0 min 0 min 0 W/m 6,4 km/h (2 Bft) 97,87 %
27.03.2019 03:00 5,8 C 5,0 C 4,4 C 89 % 1029,5 hPa 0,0 l/m 0 min 0 min 0 W/m 6,4 km/h (2 Bft) 97,83 %
27.03.2019 03:02 5,8 C 5,0 C 4,4 C 89 % 1029,6 hPa 0,0 l/m 0 min 0 min 0 W/m 0,0 km/h (0 Bft) 100,00 %
27.03.2019 03:04 5,8 C 5,0 C 4,4 C 89 % 1029,6 hPa 0,0 l/m 0 min 0 min 0 W/m 0,0 km/h (0 Bft) 100,00 %
27.03.2019 03:06 5,8 C 4,4 C 4,4 C 89 % 1029,5 hPa 0,0 l/m 0 min 0 min 0 W/m 0,0 km/h (0 Bft) 100,00 %
27.03.2019 03:08 5,8 C 4,4 C 4,4 C 89 % 1029,6 hPa 0,0 l/m 0 min 0 min 0 W/m 0,0 km/h (0 Bft) 100,00 %
27.03.2019 03:10 5,8 C 4,4 C 4,4 C 89 % 1029,5 hPa 0,0 l/m 0 min 0 min 0 W/m 0,0 km/h (0 Bft) 100,00 %
27.03.2019 03:12 5,7 C 4,4 C 4,4 C 89 % 1029,5 hPa 0,0 l/m 0 min 0 min 0 W/m 0,0 km/h (0 Bft) 100,00 %
27.03.2019 03:14 5,7 C 4,4 C 3,9 C 89 % 1029,5 hPa 0,0 l/m 0 min 0 min 0 W/m 0,0 km/h (0 Bft) 100,00 %
27.03.2019 03:16 5,7 C 4,4 C 3,9 C 89 % 1029,4 hPa 0,0 l/m 0 min 0 min 0 W/m 0,0 km/h (0 Bft) 95,74 %
27.03.2019 03:18 5,7 C 4,4 C 3,9 C 89 % 1029,4 hPa 0,0 l/m 0 min 0 min 0 W/m 0,0 km/h (0 Bft) 97,87 %
27.03.2019 03:20 5,7 C 4,4 C 3,9 C 89 % 1029,4 hPa 0,0 l/m 0 min 0 min 0 W/m 0,0 km/h (0 Bft) 97,87 %
27.03.2019 03:22 5,7 C 4,4 C 3,9 C 89 % 1029,4 hPa 0,0 l/m 0 min 0 min 0 W/m 0,0 km/h (0 Bft) 97,87 %
27.03.2019 03:24 5,7 C 4,4 C 3,3 C 89 % 1029,4 hPa 0,0 l/m 0 min 0 min 0 W/m 0,0 km/h (0 Bft) 97,83 %
27.03.2019 03:26 5,6 C 4,4 C 3,3 C 89 % 1029,5 hPa 0,0 l/m 0 min 0 min 0 W/m 0,0 km/h (0 Bft) 97,87 %
27.03.2019 03:28 5,6 C 3,9 C 3,3 C 89 % 1029,5 hPa 0,0 l/m 0 min 0 min 0 W/m 0,0 km/h (0 Bft) 97,87 %
27.03.2019 03:30 5,6 C 3,9 C 3,3 C 89 % 1029,5 hPa 0,0 l/m 0 min 0 min 0 W/m 0,0 km/h (0 Bft) 97,87 %
27.03.2019 03:32 5,6 C 3,9 C 3,3 C 89 % 1029,5 hPa 0,0 l/m 0 min 0 min 0 W/m 0,0 km/h (0 Bft) 97,87 %
27.03.2019 03:34 5,6 C 3,9 C 2,8 C 89 % 1029,5 hPa 0,0 l/m 0 min 0 min 0 W/m 0,0 km/h (0 Bft) 93,62 %
27.03.2019 03:36 5,5 C 3,9 C 2,8 C 89 % 1029,5 hPa 0,0 l/m 0 min 0 min 0 W/m 0,0 km/h (0 Bft) 97,83 %
27.03.2019 03:38 5,4 C 3,3 C 2,8 C 89 % 1029,5 hPa 0,0 l/m 0 min 0 min 0 W/m 0,0 km/h (0 Bft) 97,87 %
27.03.2019 03:40 5,4 C 3,3 C 2,8 C 89 % 1029,5 hPa 0,0 l/m 0 min 0 min 0 W/m 0,0 km/h (0 Bft) 97,87 %
27.03.2019 03:42 5,4 C 3,3 C 2,8 C 89 % 1029,5 hPa 0,0 l/m 0 min 0 min 0 W/m 0,0 km/h (0 Bft) 97,87 %
27.03.2019 03:44 5,4 C 3,3 C 2,8 C 89 % 1029,5 hPa 0,0 l/m 0 min 0 min 0 W/m 0,0 km/h (0 Bft) 95,74 %
27.03.2019 03:46 5,3 C 3,3 C 2,8 C 89 % 1029,5 hPa 0,0 l/m 0 min 0 min 0 W/m 0,0 km/h (0 Bft) 97,83 %
27.03.2019 03:48 5,3 C 3,3 C 2,8 C 89 % 1029,5 hPa 0,0 l/m 0 min 0 min 0 W/m 0,0 km/h (0 Bft) 97,87 %
27.03.2019 03:50 5,3 C 3,3 C 2,2 C 89 % 1029,5 hPa 0,0 l/m 0 min 0 min 0 W/m 0,0 km/h (0 Bft) 97,87 %
27.03.2019 03:52 5,2 C 3,3 C 2,2 C 89 % 1029,5 hPa 0,0 l/m 0 min 0 min 0 W/m 0,0 km/h (0 Bft) 95,74 %
27.03.2019 03:54 5,2 C 3,3 C 2,2 C 89 % 1029,4 hPa 0,0 l/m 0 min 0 min 0 W/m 0,0 km/h (0 Bft) 97,87 %
27.03.2019 03:56 5,1 C 2,8 C 2,2 C 89 % 1029,5 hPa 0,0 l/m 0 min 0 min 0 W/m 0,0 km/h (0 Bft) 97,87 %
27.03.2019 03:58 5,1 C 2,8 C 2,2 C 89 % 1029,4 hPa 0,0 l/m 0 min 0 min 0 W/m 0,0 km/h (0 Bft) 97,83 %
27.03.2019 04:00 5,1 C 2,8 C 2,2 C 89 % 1029,5 hPa 0,0 l/m 0 min 0 min 0 W/m 0,0 km/h (0 Bft) 97,87 %
27.03.2019 04:02 5,0 C 2,8 C 2,2 C 89 % 1029,4 hPa 0,0 l/m 0 min 0 min 0 W/m 0,0 km/h (0 Bft) 95,83 %
27.03.2019 04:04 5,0 C 3,3 C 2,2 C 89 % 1029,4 hPa 0,0 l/m 0 min 0 min 0 W/m 0,0 km/h (0 Bft) 97,87 %
27.03.2019 04:06 4,9 C 2,8 C 2,2 C 89 % 1029,4 hPa 0,0 l/m 0 min 0 min 0 W/m 0,0 km/h (0 Bft) 97,87 %
27.03.2019 04:08 4,9 C 2,8 C 2,2 C 89 % 1029,4 hPa 0,0 l/m 0 min 0 min 0 W/m 0,0 km/h (0 Bft) 97,87 %
27.03.2019 04:10 4,9 C 2,8 C 2,2 C 89 % 1029,4 hPa 0,0 l/m 0 min 0 min 0 W/m 0,0 km/h (0 Bft) 97,83 %
27.03.2019 04:12 4,8 C 2,8 C 2,2 C 89 % 1029,4 hPa 0,0 l/m 0 min 0 min 0 W/m 0,0 km/h (0 Bft) 100,00 %
27.03.2019 04:14 4,8 C 2,8 C 2,2 C 89 % 1029,3 hPa 0,0 l/m 0 min 0 min 0 W/m 0,0 km/h (0 Bft) 100,00 %
27.03.2019 04:16 4,7 C 2,8 C 2,2 C 89 % 1029,4 hPa 0,0 l/m 0 min 0 min 0 W/m 0,0 km/h (0 Bft) 97,87 %
27.03.2019 04:18 4,7 C 2,8 C 2,2 C 89 % 1029,3 hPa 0,0 l/m 0 min 0 min 0 W/m 0,0 km/h (0 Bft) 97,87 %
27.03.2019 04:20 4,7 C 2,8 C 1,7 C 89 % 1029,2 hPa 0,0 l/m 0 min 0 min 0 W/m 0,0 km/h (0 Bft) 100,00 %
27.03.2019 04:22 4,6 C 2,8 C 1,7 C 89 % 1029,2 hPa 0,0 l/m 0 min 0 min 0 W/m 0,0 km/h (0 Bft) 100,00 %
27.03.2019 04:24 4,6 C 2,8 C 1,7 C 89 % 1029,2 hPa 0,0 l/m 0 min 0 min 0 W/m 0,0 km/h (0 Bft) 97,87 %
27.03.2019 04:26 4,6 C 2,8 C 1,7 C 89 % 1029,2 hPa 0,0 l/m 0 min 0 min 0 W/m 0,0 km/h (0 Bft) 97,87 %
27.03.2019 04:28 4,5 C 2,8 C 1,7 C 89 % 1029,3 hPa 0,0 l/m 0 min 0 min 0 W/m 0,0 km/h (0 Bft) 97,87 %
27.03.2019 04:30 4,5 C 2,2 C 1,7 C 89 % 1029,3 hPa 0,0 l/m 0 min 0 min 0 W/m 0,0 km/h (0 Bft) 100,00 %
27.03.2019 04:32 4,4 C 2,2 C 1,7 C 89 % 1029,4 hPa 0,0 l/m 0 min 0 min 0 W/m 0,0 km/h (0 Bft) 97,87 %
27.03.2019 04:34 4,4 C 2,8 C 1,7 C 89 % 1029,4 hPa 0,0 l/m 0 min 0 min 0 W/m 0,0 km/h (0 Bft) 97,83 %
27.03.2019 04:36 4,3 C 2,8 C 1,7 C 89 % 1029,5 hPa 0,0 l/m 0 min 0 min 0 W/m 0,0 km/h (0 Bft) 97,87 %
27.03.2019 04:38 4,3 C 2,2 C 1,7 C 89 % 1029,5 hPa 0,0 l/m 0 min 0 min 0 W/m 0,0 km/h (0 Bft) 97,87 %
27.03.2019 04:40 4,3 C 2,8 C 1,7 C 89 % 1029,5 hPa 0,0 l/m 0 min 0 min 0 W/m 0,0 km/h (0 Bft) 97,87 %
27.03.2019 04:42 4,2 C 2,8 C 1,7 C 89 % 1029,6 hPa 0,0 l/m 0 min 0 min 0 W/m 0,0 km/h (0 Bft) 97,87 %
27.03.2019 04:44 4,2 C 2,8 C 1,7 C 89 % 1029,5 hPa 0,0 l/m 0 min 0 min 0 W/m 0,0 km/h (0 Bft) 97,87 %
27.03.2019 04:46 4,2 C 2,8 C 1,7 C 89 % 1029,5 hPa 0,0 l/m 0 min 0 min 0 W/m 0,0 km/h (0 Bft) 97,83 %
27.03.2019 04:48 4,2 C 2,2 C 1,7 C 89 % 1029,5 hPa 0,0 l/m 0 min 0 min 0 W/m 0,0 km/h (0 Bft) 97,87 %
27.03.2019 04:50 4,1 C 2,2 C 1,7 C 89 % 1029,6 hPa 0,0 l/m 0 min 0 min 0 W/m 0,0 km/h (0 Bft) 95,74 %
27.03.2019 04:52 4,1 C 2,2 C 1,7 C 89 % 1029,7 hPa 0,0 l/m 0 min 0 min 0 W/m 0,0 km/h (0 Bft) 97,87 %
27.03.2019 04:54 4,1 C 2,2 C 1,7 C 89 % 1029,7 hPa 0,0 l/m 0 min 0 min 0 W/m 0,0 km/h (0 Bft) 95,74 %
27.03.2019 04:56 4,1 C 2,8 C 1,7 C 89 % 1029,7 hPa 0,0 l/m 0 min 0 min 0 W/m 0,0 km/h (0 Bft) 95,65 %
27.03.2019 04:58 4,0 C 2,8 C 1,7 C 89 % 1029,7 hPa 0,0 l/m 0 min 0 min 0 W/m 0,0 km/h (0 Bft) 97,87 %
27.03.2019 05:00 4,0 C 2,8 C 1,7 C 89 % 1029,7 hPa 0,0 l/m 0 min 0 min 0 W/m 0,0 km/h (0 Bft) 97,87 %
27.03.2019 05:02 3,9 C 2,8 C 1,7 C 89 % 1029,6 hPa 0,0 l/m 0 min 0 min 0 W/m 0,0 km/h (0 Bft) 97,87 %
27.03.2019 05:04 3,9 C 2,8 C 1,7 C 89 % 1029,7 hPa 0,0 l/m 0 min 0 min 0 W/m 0,0 km/h (0 Bft) 97,87 %
27.03.2019 05:05 3,9 C 2,2 C 1,7 C 89 % 1029,7 hPa 0,0 l/m 0 min 0 min 0 W/m 0,0 km/h (0 Bft) 100,00 %
27.03.2019 05:10 3,9 C 2,2 C 1,7 C 90 % 1029,8 hPa 0,0 l/m 0 min 0 min 0 W/m 0,0 km/h (0 Bft) 100,00 %
27.03.2019 05:12 3,8 C 2,2 C 1,7 C 90 % 1029,9 hPa 0,0 l/m 0 min 0 min 0 W/m 0,0 km/h (0 Bft) 100,00 %
27.03.2019 05:14 3,8 C 2,2 C 1,7 C 90 % 1029,9 hPa 0,0 l/m 0 min 0 min 0 W/m 0,0 km/h (0 Bft) 100,00 %
27.03.2019 05:19 3,8 C 2,2 C 1,7 C 90 % 1029,9 hPa 0,0 l/m 0 min 0 min 0 W/m 0,0 km/h (0 Bft) 98,73 %
27.03.2019 05:20 3,7 C 2,2 C 1,7 C 90 % 1029,9 hPa 0,0 l/m 0 min 0 min 0 W/m 0,0 km/h (0 Bft) 100,00 %
27.03.2019 05:22 3,7 C 2,2 C 1,7 C 90 % 1029,8 hPa 0,0 l/m 0 min 0 min 0 W/m 0,0 km/h (0 Bft) 97,87 %
27.03.2019 05:24 3,7 C 2,2 C 1,7 C 90 % 1029,9 hPa 0,0 l/m 0 min 0 min 0 W/m 0,0 km/h (0 Bft) 95,74 %
27.03.2019 05:26 3,7 C 2,2 C 1,7 C 90 % 1030,0 hPa 0,0 l/m 0 min 0 min 0 W/m 0,0 km/h (0 Bft) 97,83 %
27.03.2019 05:28 3,7 C 2,2 C 1,7 C 90 % 1030,0 hPa 0,0 l/m 0 min 0 min 0 W/m 0,0 km/h (0 Bft) 97,87 %
27.03.2019 05:30 3,7 C 2,2 C 1,7 C 90 % 1030,0 hPa 0,0 l/m 0 min 0 min 0 W/m 0,0 km/h (0 Bft) 97,87 %
27.03.2019 05:32 3,6 C 2,2 C 1,7 C 90 % 1030,1 hPa 0,0 l/m 0 min 0 min 0 W/m 0,0 km/h (0 Bft) 97,87 %
27.03.2019 05:34 3,6 C 2,2 C 1,7 C 90 % 1030,2 hPa 0,0 l/m 0 min 0 min 0 W/m 0,0 km/h (0 Bft) 97,87 %
27.03.2019 05:36 3,6 C 2,2 C 1,7 C 90 % 1030,2 hPa 0,0 l/m 0 min 0 min 0 W/m 0,0 km/h (0 Bft) 98,28 %
27.03.2019 05:38 3,6 C 2,2 C 1,7 C 90 % 1030,2 hPa 0,0 l/m 0 min 0 min 0 W/m 0,0 km/h (0 Bft) 97,14 %
27.03.2019 05:40 3,6 C 2,8 C 1,7 C 90 % 1030,2 hPa 0,0 l/m 0 min 0 min 0 W/m 0,0 km/h (0 Bft) 97,87 %
27.03.2019 05:42 3,6 C 2,8 C 1,7 C 90 % 1030,2 hPa 0,0 l/m 0 min 0 min 0 W/m 0,0 km/h (0 Bft) 97,87 %
27.03.2019 05:44 3,6 C 2,8 C 1,7 C 90 % 1030,2 hPa 0,0 l/m 0 min 0 min 0 W/m 0,0 km/h (0 Bft) 97,87 %
27.03.2019 05:46 3,6 C 2,8 C 1,7 C 90 % 1030,2 hPa 0,0 l/m 0 min 0 min 0 W/m 0,0 km/h (0 Bft) 97,87 %
27.03.2019 05:48 3,6 C 2,8 C 1,7 C 90 % 1030,2 hPa 0,0 l/m 0 min 0 min 0 W/m 0,0 km/h (0 Bft) 95,74 %
27.03.2019 05:50 3,5 C 2,8 C 2,2 C 90 % 1030,2 hPa 0,0 l/m 0 min 0 min 0 W/m 0,0 km/h (0 Bft) 95,65 %
27.03.2019 05:52 3,5 C 2,8 C 2,2 C 90 % 1030,1 hPa 0,0 l/m 0 min 0 min 0 W/m 0,0 km/h (0 Bft) 97,87 %
27.03.2019 05:54 3,5 C 2,8 C 2,2 C 91 % 1030,1 hPa 0,0 l/m 0 min 0 min 0 W/m 0,0 km/h (0 Bft) 97,87 %
27.03.2019 05:56 3,5 C 2,8 C 2,2 C 91 % 1030,1 hPa 0,0 l/m 0 min 0 min 0 W/m 0,0 km/h (0 Bft) 97,87 %
27.03.2019 05:58 3,5 C 2,8 C 2,2 C 91 % 1030,1 hPa 0,0 l/m 0 min 0 min 0 W/m 0,0 km/h (0 Bft) 97,87 %
27.03.2019 06:00 3,5 C 2,8 C 2,2 C 91 % 1030,2 hPa 0,0 l/m 0 min 0 min 0 W/m 0,0 km/h (0 Bft) 97,87 %
27.03.2019 06:02 3,5 C 2,8 C 2,2 C 91 % 1030,1 hPa 0,0 l/m 0 min 0 min 0 W/m 3,2 km/h (1 Bft) 97,87 %
27.03.2019 06:04 3,5 C 2,8 C 2,2 C 91 % 1030,1 hPa 0,0 l/m 0 min 0 min 0 W/m 0,0 km/h (0 Bft) 97,83 %
27.03.2019 06:08 3,6 C 2,8 C 2,2 C 91 % 1030,1 hPa 0,0 l/m 0 min 0 min 0 W/m 0,0 km/h (0 Bft) 97,87 %
27.03.2019 06:10 3,6 C 2,8 C 2,2 C 91 % 1030,1 hPa 0,0 l/m 0 min 0 min 0 W/m 0,0 km/h (0 Bft) 97,87 %
27.03.2019 06:12 3,6 C 2,8 C 2,2 C 91 % 1030,1 hPa 0,0 l/m 0 min 0 min 0 W/m 0,0 km/h (0 Bft) 97,87 %
27.03.2019 06:14 3,6 C 2,8 C 2,2 C 91 % 1030,1 hPa 0,0 l/m 0 min 0 min 0 W/m 0,0 km/h (0 Bft) 95,65 %
27.03.2019 06:16 3,6 C 3,3 C 2,8 C 91 % 1030,1 hPa 0,0 l/m 0 min 0 min 0 W/m 0,0 km/h (0 Bft) 93,62 %
27.03.2019 06:18 3,6 C 3,3 C 2,2 C 92 % 1030,2 hPa 0,0 l/m 0 min 0 min 0 W/m 0,0 km/h (0 Bft) 95,74 %
27.03.2019 06:20 3,6 C 3,3 C 2,2 C 92 % 1030,2 hPa 0,0 l/m 0 min 0 min 0 W/m 0,0 km/h (0 Bft) 97,87 %
27.03.2019 06:22 3,7 C 3,3 C 2,2 C 92 % 1030,2 hPa 0,0 l/m 0 min 0 min 0 W/m 0,0 km/h (0 Bft) 95,74 %
27.03.2019 06:24 3,7 C 3,3 C 2,2 C 92 % 1030,2 hPa 0,0 l/m 0 min 0 min 0 W/m 0,0 km/h (0 Bft) 97,87 %
27.03.2019 06:26 3,7 C 3,3 C 2,2 C 92 % 1030,2 hPa 0,0 l/m 0 min 0 min 2 W/m 3,2 km/h (1 Bft) 95,65 %
27.03.2019 06:28 3,7 C 2,8 C 2,2 C 92 % 1030,3 hPa 0,0 l/m 0 min 0 min 5 W/m 0,0 km/h (0 Bft) 95,74 %
27.03.2019 06:30 3,7 C 2,8 C 2,2 C 92 % 1030,3 hPa 0,0 l/m 0 min 0 min 5 W/m 0,0 km/h (0 Bft) 95,74 %
27.03.2019 06:32 3,7 C 2,8 C 2,2 C 92 % 1030,2 hPa 0,0 l/m 0 min 0 min 7 W/m 0,0 km/h (0 Bft) 91,49 %
27.03.2019 06:34 3,7 C 2,8 C 2,2 C 92 % 1030,2 hPa 0,0 l/m 0 min 0 min 7 W/m 3,2 km/h (1 Bft) 95,74 %
27.03.2019 06:36 3,7 C 2,8 C 2,2 C 92 % 1030,3 hPa 0,0 l/m 0 min 0 min 9 W/m 0,0 km/h (0 Bft) 94,83 %
27.03.2019 06:38 3,7 C 2,8 C 2,2 C 92 % 1030,3 hPa 0,0 l/m 0 min 0 min 9 W/m 0,0 km/h (0 Bft) 97,14 %
27.03.2019 06:40 3,7 C 2,8 C 2,2 C 92 % 1030,4 hPa 0,0 l/m 0 min 0 min 9 W/m 0,0 km/h (0 Bft) 91,49 %
27.03.2019 06:42 3,7 C 2,8 C 2,2 C 92 % 1030,4 hPa 0,0 l/m 0 min 0 min 11 W/m 0,0 km/h (0 Bft) 95,74 %
27.03.2019 06:44 3,7 C 2,8 C 2,2 C 92 % 1030,4 hPa 0,0 l/m 0 min 0 min 11 W/m 0,0 km/h (0 Bft) 95,74 %
27.03.2019 06:46 3,7 C 2,8 C 2,2 C 92 % 1030,4 hPa 0,0 l/m 0 min 0 min 12 W/m 0,0 km/h (0 Bft) 95,74 %
27.03.2019 06:48 3,7 C 2,8 C 2,2 C 92 % 1030,4 hPa 0,0 l/m 0 min 0 min 14 W/m 0,0 km/h (0 Bft) 95,65 %
27.03.2019 06:50 3,7 C 2,8 C 2,2 C 92 % 1030,3 hPa 0,0 l/m 0 min 0 min 16 W/m 3,2 km/h (1 Bft) 93,62 %
27.03.2019 06:52 3,7 C 2,8 C 2,2 C 93 % 1030,3 hPa 0,0 l/m 0 min 0 min 16 W/m 0,0 km/h (0 Bft) 95,74 %
27.03.2019 06:54 3,7 C 2,8 C 2,2 C 93 % 1030,4 hPa 0,0 l/m 0 min 0 min 17 W/m 0,0 km/h (0 Bft) 95,74 %
27.03.2019 06:56 3,7 C 2,8 C 2,2 C 93 % 1030,5 hPa 0,0 l/m 0 min 0 min 16 W/m 0,0 km/h (0 Bft) 95,74 %
27.03.2019 06:58 3,7 C 2,8 C 2,2 C 93 % 1030,5 hPa 0,0 l/m 0 min 0 min 16 W/m 0,0 km/h (0 Bft) 95,74 %
27.03.2019 07:00 3,7 C 2,8 C 2,2 C 93 % 1030,5 hPa 0,0 l/m 0 min 0 min 16 W/m 0,0 km/h (0 Bft) 91,30 %
27.03.2019 07:02 3,7 C 2,8 C 2,2 C 93 % 1030,6 hPa 0,0 l/m 0 min 0 min 18 W/m 0,0 km/h (0 Bft) 95,74 %
27.03.2019 07:04 3,7 C 2,8 C 2,2 C 93 % 1030,6 hPa 0,0 l/m 0 min 0 min 18 W/m 0,0 km/h (0 Bft) 93,62 %
27.03.2019 07:06 3,7 C 2,8 C 2,2 C 93 % 1030,7 hPa 0,0 l/m 0 min 0 min 19 W/m 0,0 km/h (0 Bft) 94,92 %
27.03.2019 07:08 3,7 C 2,8 C 2,2 C 93 % 1030,6 hPa 0,0 l/m 0 min 0 min 21 W/m 0,0 km/h (0 Bft) 97,14 %
27.03.2019 07:10 3,7 C 2,8 C 2,2 C 93 % 1030,7 hPa 0,0 l/m 0 min 0 min 21 W/m 0,0 km/h (0 Bft) 97,87 %
27.03.2019 07:12 3,7 C 2,8 C 2,2 C 93 % 1030,7 hPa 0,0 l/m 0 min 0 min 24 W/m 0,0 km/h (0 Bft) 100,00 %
27.03.2019 07:14 3,7 C 2,8 C 2,2 C 93 % 1030,7 hPa 0,0 l/m 0 min 0 min 26 W/m 0,0 km/h (0 Bft) 100,00 %
27.03.2019 07:16 3,7 C 2,8 C 2,2 C 93 % 1030,7 hPa 0,0 l/m 0 min 0 min 28 W/m 0,0 km/h (0 Bft) 100,00 %
27.03.2019 07:18 3,7 C 2,8 C 2,2 C 93 % 1030,7 hPa 0,0 l/m 0 min 0 min 32 W/m 0,0 km/h (0 Bft) 100,00 %
27.03.2019 07:20 3,6 C 2,8 C 2,2 C 93 % 1030,7 hPa 0,0 l/m 0 min 0 min 34 W/m 0,0 km/h (0 Bft) 97,87 %
27.03.2019 07:22 3,6 C 2,8 C 2,2 C 93 % 1030,7 hPa 0,0 l/m 0 min 0 min 35 W/m 0,0 km/h (0 Bft) 100,00 %
27.03.2019 07:24 3,6 C 3,3 C 2,2 C 93 % 1030,7 hPa 0,0 l/m 0 min 0 min 37 W/m 0,0 km/h (0 Bft) 100,00 %
27.03.2019 07:26 3,6 C 3,3 C 2,2 C 93 % 1030,8 hPa 0,0 l/m 0 min 0 min 37 W/m 0,0 km/h (0 Bft) 97,87 %
27.03.2019 07:28 3,6 C 3,3 C 2,2 C 93 % 1030,7 hPa 0,0 l/m 0 min 0 min 37 W/m 0,0 km/h (0 Bft) 97,87 %
27.03.2019 07:30 3,6 C 3,9 C 2,2 C 93 % 1030,7 hPa 0,0 l/m 0 min 0 min 37 W/m 0,0 km/h (0 Bft) 100,00 %
27.03.2019 07:32 3,6 C 3,9 C 2,2 C 93 % 1030,7 hPa 0,0 l/m 0 min 0 min 37 W/m 0,0 km/h (0 Bft) 97,87 %
27.03.2019 07:34 3,6 C 3,9 C 2,2 C 93 % 1030,8 hPa 0,0 l/m 0 min 0 min 38 W/m 0,0 km/h (0 Bft) 97,87 %
27.03.2019 07:36 3,6 C 3,9 C 2,8 C 93 % 1030,8 hPa 0,0 l/m 0 min 0 min 40 W/m 0,0 km/h (0 Bft) 94,83 %
27.03.2019 07:38 3,6 C 3,9 C 2,8 C 93 % 1030,8 hPa 0,0 l/m 0 min 0 min 42 W/m 0,0 km/h (0 Bft) 100,00 %
27.03.2019 07:40 3,6 C 3,9 C 2,8 C 93 % 1030,8 hPa 0,0 l/m 0 min 0 min 42 W/m 0,0 km/h (0 Bft) 100,00 %
27.03.2019 07:42 3,6 C 3,9 C 2,8 C 93 % 1030,8 hPa 0,0 l/m 0 min 0 min 42 W/m 0,0 km/h (0 Bft) 100,00 %
27.03.2019 07:44 3,6 C 4,4 C 2,8 C 93 % 1030,8 hPa 0,0 l/m 0 min 0 min 44 W/m 0,0 km/h (0 Bft) 100,00 %
27.03.2019 07:46 3,6 C 4,4 C 2,8 C 93 % 1030,8 hPa 0,0 l/m 0 min 0 min 46 W/m 0,0 km/h (0 Bft) 100,00 %
27.03.2019 07:48 3,7 C 4,4 C 3,3 C 93 % 1030,8 hPa 0,0 l/m 0 min 0 min 46 W/m 0,0 km/h (0 Bft) 100,00 %
27.03.2019 07:50 3,7 C 4,4 C 3,3 C 93 % 1030,8 hPa 0,0 l/m 0 min 0 min 47 W/m 0,0 km/h (0 Bft) 100,00 %
27.03.2019 07:52 3,7 C 4,4 C 3,3 C 93 % 1031,0 hPa 0,0 l/m 0 min 0 min 47 W/m 0,0 km/h (0 Bft) 100,00 %
27.03.2019 07:54 3,8 C 4,4 C 3,3 C 93 % 1030,9 hPa 0,0 l/m 0 min 0 min 47 W/m 0,0 km/h (0 Bft) 100,00 %
27.03.2019 07:56 3,8 C 5,0 C 3,3 C 93 % 1030,9 hPa 0,0 l/m 0 min 0 min 47 W/m 3,2 km/h (1 Bft) 97,87 %
27.03.2019 07:58 3,8 C 5,0 C 3,3 C 93 % 1030,9 hPa 0,0 l/m 0 min 0 min 49 W/m 3,2 km/h (1 Bft) 100,00 %
27.03.2019 08:00 3,9 C 5,0 C 3,9 C 94 % 1031,0 hPa 0,0 l/m 0 min 0 min 52 W/m 0,0 km/h (0 Bft) 100,00 %
27.03.2019 08:02 3,9 C 5,0 C 3,9 C 94 % 1031,0 hPa 0,0 l/m 0 min 0 min 56 W/m 0,0 km/h (0 Bft) 97,87 %
27.03.2019 08:04 4,0 C 5,0 C 3,9 C 94 % 1031,0 hPa 0,0 l/m 0 min 0 min 60 W/m 3,2 km/h (1 Bft) 100,00 %
27.03.2019 08:06 4,1 C 5,6 C 4,4 C 94 % 1031,1 hPa 0,0 l/m 0 min 0 min 58 W/m 3,2 km/h (1 Bft) 100,00 %
27.03.2019 08:08 4,2 C 5,6 C 4,4 C 94 % 1031,1 hPa 0,0 l/m 0 min 0 min 58 W/m 0,0 km/h (0 Bft) 100,00 %
27.03.2019 08:10 4,2 C 5,6 C 4,4 C 94 % 1031,1 hPa 0,0 l/m 0 min 0 min 56 W/m 0,0 km/h (0 Bft) 100,00 %
27.03.2019 08:12 4,2 C 5,6 C 4,4 C 94 % 1031,0 hPa 0,0 l/m 0 min 0 min 55 W/m 0,0 km/h (0 Bft) 100,00 %
27.03.2019 08:14 4,3 C 5,6 C 4,4 C 94 % 1031,1 hPa 0,0 l/m 0 min 0 min 56 W/m 0,0 km/h (0 Bft) 100,00 %
27.03.2019 08:16 4,4 C 5,6 C 4,4 C 94 % 1031,0 hPa 0,0 l/m 0 min 0 min 56 W/m 3,2 km/h (1 Bft) 100,00 %
27.03.2019 08:18 4,5 C 5,6 C 4,4 C 94 % 1031,0 hPa 0,0 l/m 0 min 0 min 56 W/m 0,0 km/h (0 Bft) 97,87 %
27.03.2019 08:20 4,6 C 6,1 C 4,4 C 95 % 1031,1 hPa 0,0 l/m 0 min 0 min 56 W/m 3,2 km/h (1 Bft) 100,00 %
27.03.2019 08:22 4,7 C 6,1 C 5,0 C 95 % 1031,1 hPa 0,0 l/m 0 min 0 min 58 W/m 0,0 km/h (0 Bft) 95,65 %
27.03.2019 08:24 4,8 C 6,1 C 5,0 C 95 % 1031,0 hPa 0,0 l/m 0 min 0 min 59 W/m 0,0 km/h (0 Bft) 97,87 %
27.03.2019 08:26 4,8 C 6,1 C 5,0 C 95 % 1031,1 hPa 0,0 l/m 0 min 0 min 59 W/m 0,0 km/h (0 Bft) 100,00 %
27.03.2019 08:28 4,9 C 6,1 C 5,0 C 95 % 1031,1 hPa 0,0 l/m 0 min 0 min 58 W/m 3,2 km/h (1 Bft) 100,00 %
27.03.2019 08:30 4,9 C 6,1 C 5,0 C 95 % 1031,1 hPa 0,0 l/m 0 min 0 min 60 W/m 0,0 km/h (0 Bft) 100,00 %
27.03.2019 08:32 5,0 C 6,1 C 5,0 C 95 % 1031,1 hPa 0,0 l/m 0 min 0 min 60 W/m 0,0 km/h (0 Bft) 97,87 %
27.03.2019 08:34 5,1 C 6,1 C 5,0 C 95 % 1031,0 hPa 0,0 l/m 0 min 0 min 60 W/m 0,0 km/h (0 Bft) 97,83 %
27.03.2019 08:36 5,2 C 6,7 C 5,0 C 95 % 1031,0 hPa 0,0 l/m 0 min 0 min 61 W/m 3,2 km/h (1 Bft) 100,00 %
27.03.2019 08:38 5,2 C 8,9 C 5,0 C 95 % 1031,0 hPa 0,0 l/m 0 min 0 min 65 W/m 0,0 km/h (0 Bft) 100,00 %
27.03.2019 08:40 5,3 C 10,0 C 5,0 C 95 % 1031,0 hPa 0,0 l/m 0 min 0 min 72 W/m 0,0 km/h (0 Bft) 100,00 %
27.03.2019 08:42 5,3 C 11,1 C 5,6 C 95 % 1031,0 hPa 0,0 l/m 0 min 0 min 87 W/m 0,0 km/h (0 Bft) 100,00 %
27.03.2019 08:44 5,4 C 11,7 C 5,6 C 95 % 1031,0 hPa 0,0 l/m 0 min 0 min 107 W/m 0,0 km/h (0 Bft) 97,83 %
27.03.2019 08:46 5,5 C 11,7 C 5,6 C 95 % 1031,0 hPa 0,0 l/m 0 min 0 min 130 W/m 0,0 km/h (0 Bft) 97,87 %
27.03.2019 08:48 5,6 C 12,8 C 5,6 C 96 % 1031,1 hPa 0,0 l/m 0 min 0 min 156 W/m 3,2 km/h (1 Bft) 95,74 %
27.03.2019 08:50 5,8 C 12,8 C 5,6 C 96 % 1031,1 hPa 0,0 l/m 2 min 0 min 184 W/m 0,0 km/h (0 Bft) 95,74 %
27.03.2019 08:52 5,9 C 13,9 C 5,6 C 96 % 1031,0 hPa 0,0 l/m 2 min 0 min 215 W/m 0,0 km/h (0 Bft) 95,74 %
27.03.2019 08:54 6,0 C 13,9 C 6,1 C 96 % 1031,1 hPa 0,0 l/m 2 min 0 min 257 W/m 0,0 km/h (0 Bft) 93,62 %
27.03.2019 08:56 6,1 C 14,4 C 6,1 C 96 % 1031,1 hPa 0,0 l/m 2 min 0 min 282 W/m 6,4 km/h (2 Bft) 95,65 %
27.03.2019 08:58 6,2 C 14,4 C 6,1 C 96 % 1031,1 hPa 0,0 l/m 2 min 0 min 303 W/m 6,4 km/h (2 Bft) 93,62 %
27.03.2019 09:00 6,4 C 14,4 C 7,2 C 96 % 1031,1 hPa 0,0 l/m 2 min 0 min 318 W/m 6,4 km/h (2 Bft) 93,62 %
27.03.2019 09:02 6,5 C 13,3 C 8,9 C 96 % 1031,1 hPa 0,0 l/m 2 min 0 min 321 W/m 6,4 km/h (2 Bft) 91,49 %
27.03.2019 09:04 6,6 C 14,4 C 9,4 C 96 % 1031,2 hPa 0,0 l/m 2 min 0 min 330 W/m 9,7 km/h (2 Bft) 95,74 %
27.03.2019 09:06 6,8 C 13,3 C 9,4 C 96 % 1031,1 hPa 0,0 l/m 2 min 0 min 334 W/m 3,2 km/h (1 Bft) 89,66 %
27.03.2019 09:08 6,8 C 12,2 C 8,9 C 96 % 1031,1 hPa 0,0 l/m 0 min 0 min 159 W/m 6,4 km/h (2 Bft) 97,14 %
27.03.2019 09:10 6,9 C 12,8 C 9,4 C 96 % 1031,1 hPa 0,0 l/m 0 min 0 min 125 W/m 6,4 km/h (2 Bft) 91,49 %
27.03.2019 09:12 7,1 C 13,9 C 10,0 C 96 % 1031,1 hPa 0,0 l/m 2 min 0 min 386 W/m 9,7 km/h (2 Bft) 93,62 %
27.03.2019 09:14 7,2 C 14,4 C 11,1 C 96 % 1031,1 hPa 0,0 l/m 2 min 0 min 404 W/m 9,7 km/h (2 Bft) 93,62 %
27.03.2019 09:16 7,3 C 14,4 C 11,7 C 96 % 1031,1 hPa 0,0 l/m 2 min 0 min 426 W/m 6,4 km/h (2 Bft) 93,62 %
27.03.2019 09:18 7,4 C 13,3 C 11,1 C 96 % 1031,1 hPa 0,0 l/m 2 min 0 min 398 W/m 6,4 km/h (2 Bft) 91,49 %
27.03.2019 09:20 7,4 C 12,2 C 9,4 C 96 % 1031,1 hPa 0,0 l/m 0 min 0 min 177 W/m 6,4 km/h (2 Bft) 91,30 %
27.03.2019 09:22 7,4 C 11,1 C 8,9 C 96 % 1031,0 hPa 0,0 l/m 0 min 0 min 119 W/m 6,4 km/h (2 Bft) 93,62 %
27.03.2019 09:24 7,5 C 10,0 C 8,3 C 96 % 1031,1 hPa 0,0 l/m 0 min 0 min 121 W/m 6,4 km/h (2 Bft) 95,74 %
27.03.2019 09:26 7,5 C 10,0 C 8,3 C 95 % 1031,1 hPa 0,0 l/m 0 min 0 min 140 W/m 6,4 km/h (2 Bft) 91,49 %
27.03.2019 09:28 7,6 C 12,8 C 10,6 C 95 % 1031,2 hPa 0,0 l/m 2 min 0 min 326 W/m 6,4 km/h (2 Bft) 95,74 %
27.03.2019 09:30 7,6 C 13,9 C 11,1 C 95 % 1031,2 hPa 0,0 l/m 2 min 0 min 517 W/m 6,4 km/h (2 Bft) 97,87 %
27.03.2019 09:32 7,7 C 14,4 C 11,7 C 95 % 1031,2 hPa 0,0 l/m 2 min 0 min 484 W/m 3,2 km/h (1 Bft) 97,83 %
27.03.2019 09:34 7,8 C 13,3 C 10,6 C 94 % 1031,1 hPa 0,0 l/m 2 min 0 min 441 W/m 9,7 km/h (2 Bft) 97,87 %
27.03.2019 09:36 7,8 C 12,2 C 10,0 C 94 % 1031,1 hPa 0,0 l/m 0 min 0 min 168 W/m 6,4 km/h (2 Bft) 98,31 %
27.03.2019 09:38 7,9 C 12,2 C 10,0 C 94 % 1031,1 hPa 0,0 l/m 0 min 0 min 188 W/m 3,2 km/h (1 Bft) 97,14 %
27.03.2019 09:40 7,9 C 13,3 C 11,7 C 93 % 1031,1 hPa 0,0 l/m 0 min 0 min 200 W/m 3,2 km/h (1 Bft) 97,87 %
27.03.2019 09:42 8,1 C 15,6 C 13,3 C 93 % 1031,1 hPa 0,0 l/m 2 min 0 min 572 W/m 6,4 km/h (2 Bft) 97,87 %
27.03.2019 09:44 8,2 C 16,7 C 14,4 C 92 % 1031,2 hPa 0,0 l/m 2 min 0 min 571 W/m 6,4 km/h (2 Bft) 95,65 %
27.03.2019 09:46 8,3 C 14,4 C 12,8 C 92 % 1031,2 hPa 0,0 l/m 2 min 0 min 518 W/m 9,7 km/h (2 Bft) 97,87 %
27.03.2019 09:48 8,4 C 12,8 C 10,6 C 91 % 1031,3 hPa 0,0 l/m 2 min 0 min 291 W/m 6,4 km/h (2 Bft) 97,87 %
27.03.2019 09:50 8,5 C 13,9 C 11,7 C 90 % 1031,3 hPa 0,0 l/m 2 min 0 min 340 W/m 3,2 km/h (1 Bft) 97,87 %
27.03.2019 09:52 8,6 C 15,6 C 12,8 C 89 % 1031,2 hPa 0,0 l/m 2 min 0 min 585 W/m 9,7 km/h (2 Bft) 97,87 %
27.03.2019 09:54 8,7 C 15,6 C 13,3 C 89 % 1031,4 hPa 0,0 l/m 2 min 0 min 572 W/m 12,9 km/h (3 Bft) 97,87 %
27.03.2019 09:56 8,8 C 16,1 C 13,9 C 87 % 1031,4 hPa 0,0 l/m 2 min 0 min 559 W/m 12,9 km/h (3 Bft) 95,65 %
27.03.2019 09:58 9,0 C 16,7 C 14,4 C 87 % 1031,4 hPa 0,0 l/m 2 min 0 min 575 W/m 9,7 km/h (2 Bft) 97,87 %
27.03.2019 10:00 9,1 C 16,7 C 14,4 C 86 % 1031,4 hPa 0,0 l/m 2 min 0 min 590 W/m 6,4 km/h (2 Bft) 97,87 %
27.03.2019 10:02 9,2 C 16,7 C 13,9 C 84 % 1031,5 hPa 0,0 l/m 2 min 0 min 601 W/m 9,7 km/h (2 Bft) 97,87 %
27.03.2019 10:04 9,3 C 13,9 C 12,2 C 83 % 1031,5 hPa 0,0 l/m 2 min 0 min 570 W/m 9,7 km/h (2 Bft) 97,87 %
27.03.2019 10:06 9,4 C 15,6 C 13,3 C 82 % 1031,5 hPa 0,0 l/m 2 min 0 min 432 W/m 9,7 km/h (2 Bft) 98,28 %
27.03.2019 10:08 9,6 C 17,8 C 15,0 C 82 % 1031,5 hPa 0,0 l/m 2 min 0 min 670 W/m 6,4 km/h (2 Bft) 97,14 %
27.03.2019 10:10 9,7 C 17,2 C 15,0 C 81 % 1031,4 hPa 0,0 l/m 2 min 0 min 684 W/m 9,7 km/h (2 Bft) 97,87 %
27.03.2019 10:12 9,8 C 16,1 C 15,6 C 80 % 1031,4 hPa 0,0 l/m 2 min 0 min 722 W/m 9,7 km/h (2 Bft) 97,87 %
27.03.2019 10:14 9,9 C 15,6 C 15,0 C 80 % 1031,4 hPa 0,0 l/m 2 min 0 min 639 W/m 9,7 km/h (2 Bft) 97,87 %
27.03.2019 10:16 10,1 C 16,1 C 15,0 C 80 % 1031,5 hPa 0,0 l/m 2 min 0 min 439 W/m 6,4 km/h (2 Bft) 97,87 %
27.03.2019 10:18 10,1 C 14,4 C 12,8 C 79 % 1031,4 hPa 0,0 l/m 2 min 0 min 357 W/m 6,4 km/h (2 Bft) 97,83 %
27.03.2019 10:20 10,2 C 13,9 C 12,8 C 78 % 1031,4 hPa 0,0 l/m 0 min 0 min 249 W/m 3,2 km/h (1 Bft) 97,87 %
27.03.2019 10:22 10,2 C 12,8 C 11,7 C 78 % 1031,4 hPa 0,0 l/m 0 min 0 min 210 W/m 9,7 km/h (2 Bft) 97,87 %
27.03.2019 10:24 10,3 C 12,2 C 11,1 C 78 % 1031,4 hPa 0,0 l/m 0 min 0 min 205 W/m 9,7 km/h (2 Bft) 97,87 %
27.03.2019 10:26 10,3 C 12,2 C 11,1 C 77 % 1031,4 hPa 0,0 l/m 0 min 0 min 197 W/m 0,0 km/h (0 Bft) 93,62 %
27.03.2019 10:28 10,3 C 11,7 C 10,6 C 77 % 1031,4 hPa 0,0 l/m 0 min 0 min 192 W/m 9,7 km/h (2 Bft) 93,62 %
27.03.2019 10:30 10,2 C 11,1 C 10,0 C 76 % 1031,4 hPa 0,0 l/m 0 min 0 min 191 W/m 6,4 km/h (2 Bft) 97,83 %
27.03.2019 10:32 10,2 C 10,6 C 10,0 C 76 % 1031,5 hPa 0,0 l/m 0 min 0 min 191 W/m 6,4 km/h (2 Bft) 97,87 %
27.03.2019 10:34 10,1 C 10,6 C 9,4 C 76 % 1031,5 hPa 0,0 l/m 0 min 0 min 191 W/m 9,7 km/h (2 Bft) 97,87 %
27.03.2019 10:36 10,1 C 10,6 C 9,4 C 76 % 1031,4 hPa 0,0 l/m 0 min 0 min 191 W/m 12,9 km/h (3 Bft) 96,61 %
27.03.2019 10:38 10,0 C 12,2 C 9,4 C 75 % 1031,4 hPa 0,0 l/m 0 min 0 min 188 W/m 9,7 km/h (2 Bft) 97,14 %
27.03.2019 10:40 10,0 C 11,7 C 9,4 C 75 % 1031,4 hPa 0,0 l/m 0 min 0 min 199 W/m 6,4 km/h (2 Bft) 97,87 %
27.03.2019 10:42 9,9 C 12,8 C 9,4 C 74 % 1031,4 hPa 0,0 l/m 0 min 0 min 220 W/m 9,7 km/h (2 Bft) 97,83 %
27.03.2019 10:44 9,9 C 15,0 C 10,0 C 73 % 1031,4 hPa 0,0 l/m 0 min 0 min 247 W/m 3,2 km/h (1 Bft) 97,87 %
27.03.2019 10:46 10,0 C 16,1 C 10,6 C 74 % 1031,4 hPa 0,0 l/m 2 min 0 min 596 W/m 9,7 km/h (2 Bft) 100,00 %
27.03.2019 10:48 10,1 C 15,6 C 10,6 C 73 % 1031,4 hPa 0,0 l/m 2 min 0 min 484 W/m 3,2 km/h (1 Bft) 97,87 %
27.03.2019 10:50 10,1 C 14,4 C 11,1 C 73 % 1031,5 hPa 0,0 l/m 2 min 0 min 377 W/m 6,4 km/h (2 Bft) 97,87 %
27.03.2019 10:52 10,1 C 13,9 C 11,1 C 73 % 1031,4 hPa 0,0 l/m 2 min 0 min 318 W/m 6,4 km/h (2 Bft) 97,87 %
27.03.2019 10:54 10,2 C 13,9 C 11,7 C 73 % 1031,4 hPa 0,0 l/m 0 min 0 min 284 W/m 9,7 km/h (2 Bft) 97,83 %
27.03.2019 10:56 10,2 C 13,3 C 11,7 C 73 % 1031,4 hPa 0,0 l/m 0 min 0 min 255 W/m 6,4 km/h (2 Bft) 97,87 %
27.03.2019 10:58 10,3 C 12,2 C 11,1 C 73 % 1031,4 hPa 0,0 l/m 0 min 0 min 221 W/m 6,4 km/h (2 Bft) 95,74 %
27.03.2019 11:00 10,3 C 12,2 C 11,1 C 72 % 1031,5 hPa 0,0 l/m 0 min 0 min 192 W/m 6,4 km/h (2 Bft) 95,74 %
27.03.2019 11:02 10,3 C 11,7 C 10,6 C 72 % 1031,5 hPa 0,0 l/m 0 min 0 min 172 W/m 6,4 km/h (2 Bft) 95,74 %
27.03.2019 11:04 10,4 C 11,1 C 10,0 C 71 % 1031,6 hPa 0,0 l/m 0 min 0 min 156 W/m 6,4 km/h (2 Bft) 95,74 %
27.03.2019 11:06 10,4 C 11,1 C 10,0 C 71 % 1031,5 hPa 0,0 l/m 0 min 0 min 138 W/m 6,4 km/h (2 Bft) 93,10 %
27.03.2019 11:08 10,4 C 10,6 C 10,0 C 71 % 1031,6 hPa 0,0 l/m 0 min 0 min 121 W/m 6,4 km/h (2 Bft) 97,14 %
27.03.2019 11:10 10,3 C 10,6 C 9,4 C 71 % 1031,6 hPa 0,0 l/m 0 min 0 min 111 W/m 9,7 km/h (2 Bft) 91,49 %
27.03.2019 11:12 10,3 C 10,6 C 9,4 C 72 % 1031,5 hPa 0,0 l/m 0 min 0 min 107 W/m 12,9 km/h (3 Bft) 93,62 %
27.03.2019 11:14 10,3 C 10,0 C 9,4 C 72 % 1031,6 hPa 0,0 l/m 0 min 0 min 109 W/m 12,9 km/h (3 Bft) 93,62 %
27.03.2019 11:16 10,3 C 10,0 C 9,4 C 72 % 1031,5 hPa 0,0 l/m 0 min 0 min 109 W/m 6,4 km/h (2 Bft) 93,62 %
27.03.2019 11:18 10,3 C 10,0 C 9,4 C 73 % 1031,6 hPa 0,0 l/m 0 min 0 min 101 W/m 6,4 km/h (2 Bft) 93,48 %
27.03.2019 11:20 10,3 C 10,0 C 9,4 C 73 % 1031,6 hPa 0,0 l/m 0 min 0 min 93 W/m 16,1 km/h (3 Bft) 93,62 %
27.03.2019 11:22 10,2 C 10,0 C 9,4 C 73 % 1031,6 hPa 0,0 l/m 0 min 0 min 92 W/m 12,9 km/h (3 Bft) 93,62 %
27.03.2019 11:24 10,2 C 10,0 C 9,4 C 74 % 1031,6 hPa 0,0 l/m 0 min 0 min 99 W/m 6,4 km/h (2 Bft) 93,62 %
27.03.2019 11:26 10,2 C 10,0 C 8,9 C 74 % 1031,6 hPa 0,0 l/m 0 min 0 min 111 W/m 6,4 km/h (2 Bft) 95,74 %
27.03.2019 11:28 10,2 C 10,0 C 9,4 C 75 % 1031,6 hPa 0,0 l/m 0 min 0 min 121 W/m 6,4 km/h (2 Bft) 91,30 %
27.03.2019 11:30 10,1 C 10,0 C 9,4 C 75 % 1031,7 hPa 0,0 l/m 0 min 0 min 138 W/m 9,7 km/h (2 Bft) 91,49 %
27.03.2019 11:32 10,1 C 10,0 C 9,4 C 75 % 1031,7 hPa 0,0 l/m 0 min 0 min 151 W/m 6,4 km/h (2 Bft) 93,62 %
27.03.2019 11:34 10,1 C 10,0 C 9,4 C 75 % 1031,7 hPa 0,0 l/m 0 min 0 min 162 W/m 6,4 km/h (2 Bft) 93,62 %
27.03.2019 11:36 10,1 C 10,0 C 9,4 C 75 % 1031,7 hPa 0,0 l/m 0 min 0 min 171 W/m 6,4 km/h (2 Bft) 94,83 %
27.03.2019 11:38 10,0 C 10,0 C 9,4 C 75 % 1031,7 hPa 0,0 l/m 0 min 0 min 184 W/m 9,7 km/h (2 Bft) 91,67 %
27.03.2019 11:40 10,0 C 10,0 C 9,4 C 74 % 1031,6 hPa 0,0 l/m 0 min 0 min 190 W/m 6,4 km/h (2 Bft) 93,62 %
27.03.2019 11:42 10,0 C 10,6 C 10,0 C 75 % 1031,6 hPa 0,0 l/m 0 min 0 min 195 W/m 9,7 km/h (2 Bft) 93,48 %
27.03.2019 11:44 10,0 C 10,6 C 10,0 C 74 % 1031,7 hPa 0,0 l/m 0 min 0 min 202 W/m 6,4 km/h (2 Bft) 95,74 %
27.03.2019 11:46 10,0 C 10,6 C 10,0 C 73 % 1031,7 hPa 0,0 l/m 0 min 0 min 214 W/m 6,4 km/h (2 Bft) 93,62 %
27.03.2019 11:48 9,9 C 11,1 C 10,6 C 73 % 1031,8 hPa 0,0 l/m 0 min 0 min 220 W/m 6,4 km/h (2 Bft) 93,62 %
27.03.2019 11:50 10,0 C 11,7 C 10,6 C 73 % 1031,8 hPa 0,0 l/m 0 min 0 min 220 W/m 0,0 km/h (0 Bft) 95,74 %
27.03.2019 11:52 10,0 C 11,7 C 10,6 C 73 % 1031,7 hPa 0,0 l/m 0 min 0 min 222 W/m 0,0 km/h (0 Bft) 100,00 %
27.03.2019 11:54 10,0 C 12,2 C 10,6 C 73 % 1031,7 hPa 0,0 l/m 0 min 0 min 236 W/m 3,2 km/h (1 Bft) 97,87 %
27.03.2019 11:56 10,1 C 12,2 C 10,6 C 73 % 1031,7 hPa 0,0 l/m 0 min 0 min 227 W/m 9,7 km/h (2 Bft) 97,87 %
27.03.2019 11:58 10,1 C 12,8 C 10,6 C 72 % 1031,7 hPa 0,0 l/m 0 min 0 min 235 W/m 6,4 km/h (2 Bft) 93,62 %
27.03.2019 12:00 10,1 C 15,0 C 11,1 C 72 % 1031,8 hPa 0,0 l/m 0 min 0 min 254 W/m 9,7 km/h (2 Bft) 100,00 %
27.03.2019 12:02 10,3 C 18,9 C 12,2 C 72 % 1031,8 hPa 0,0 l/m 2 min 0 min 703 W/m 12,9 km/h (3 Bft) 97,87 %
27.03.2019 12:04 10,5 C 20,0 C 12,8 C 72 % 1031,8 hPa 0,0 l/m 2 min 0 min 665 W/m 3,2 km/h (1 Bft) 100,00 %
27.03.2019 12:08 10,8 C 18,3 C 13,3 C 70 % 1031,7 hPa 0,0 l/m 4 min 0 min 540 W/m 6,4 km/h (2 Bft) 100,00 %
27.03.2019 12:10 10,9 C 17,8 C 13,3 C 70 % 1031,7 hPa 0,0 l/m 2 min 0 min 406 W/m 6,4 km/h (2 Bft) 100,00 %
27.03.2019 12:12 11,1 C 16,7 C 12,8 C 70 % 1031,7 hPa 0,0 l/m 2 min 0 min 335 W/m 6,4 km/h (2 Bft) 100,00 %
27.03.2019 12:14 11,2 C 15,0 C 12,8 C 69 % 1031,7 hPa 0,0 l/m 0 min 0 min 293 W/m 9,7 km/h (2 Bft) 100,00 %
27.03.2019 12:16 11,3 C 14,4 C 12,2 C 67 % 1031,7 hPa 0,0 l/m 0 min 0 min 254 W/m 9,7 km/h (2 Bft) 97,83 %
27.03.2019 12:18 11,3 C 13,3 C 11,7 C 67 % 1031,7 hPa 0,0 l/m 0 min 0 min 212 W/m 12,9 km/h (3 Bft) 100,00 %
27.03.2019 12:20 11,3 C 12,2 C 11,1 C 67 % 1031,7 hPa 0,0 l/m 0 min 0 min 192 W/m 9,7 km/h (2 Bft) 100,00 %
27.03.2019 12:22 11,3 C 11,7 C 11,1 C 67 % 1031,7 hPa 0,0 l/m 0 min 0 min 186 W/m 9,7 km/h (2 Bft) 100,00 %
27.03.2019 12:24 11,3 C 11,7 C 11,1 C 68 % 1031,8 hPa 0,0 l/m 0 min 0 min 189 W/m 12,9 km/h (3 Bft) 100,00 %
27.03.2019 12:26 11,3 C 11,7 C 10,6 C 67 % 1031,8 hPa 0,0 l/m 0 min 0 min 199 W/m 9,7 km/h (2 Bft) 100,00 %
27.03.2019 12:28 11,2 C 11,7 C 11,1 C 66 % 1031,7 hPa 0,0 l/m 0 min 0 min 215 W/m 16,1 km/h (3 Bft) 100,00 %
27.03.2019 12:30 11,2 C 12,2 C 11,1 C 67 % 1031,7 hPa 0,0 l/m 0 min 0 min 236 W/m 12,9 km/h (3 Bft) 100,00 %
27.03.2019 12:32 11,2 C 12,2 C 11,1 C 67 % 1031,7 hPa 0,0 l/m 0 min 0 min 263 W/m 16,1 km/h (3 Bft) 100,00 %
27.03.2019 12:34 11,2 C 12,2 C 11,7 C 66 % 1031,7 hPa 0,0 l/m 0 min 0 min 293 W/m 16,1 km/h (3 Bft) 100,00 %
27.03.2019 12:36 11,2 C 12,2 C 11,7 C 66 % 1031,7 hPa 0,0 l/m 0 min 0 min 315 W/m 9,7 km/h (2 Bft) 98,28 %
27.03.2019 12:38 11,1 C 12,8 C 12,2 C 66 % 1031,6 hPa 0,0 l/m 0 min 0 min 322 W/m 9,7 km/h (2 Bft) 100,00 %
27.03.2019 12:40 11,1 C 12,8 C 12,2 C 66 % 1031,7 hPa 0,0 l/m 2 min 0 min 373 W/m 9,7 km/h (2 Bft) 100,00 %
27.03.2019 12:42 11,1 C 13,3 C 12,2 C 67 % 1031,6 hPa 0,0 l/m 0 min 0 min 292 W/m 16,1 km/h (3 Bft) 97,87 %
27.03.2019 12:44 11,2 C 12,8 C 12,2 C 68 % 1031,6 hPa 0,0 l/m 0 min 0 min 265 W/m 6,4 km/h (2 Bft) 100,00 %
27.03.2019 12:46 11,2 C 12,8 C 11,7 C 67 % 1031,6 hPa 0,0 l/m 0 min 0 min 252 W/m 6,4 km/h (2 Bft) 100,00 %
27.03.2019 12:48 11,2 C 12,8 C 11,7 C 67 % 1031,6 hPa 0,0 l/m 0 min 0 min 244 W/m 12,9 km/h (3 Bft) 100,00 %
27.03.2019 12:50 11,2 C 12,8 C 11,7 C 67 % 1031,5 hPa 0,0 l/m 0 min 0 min 245 W/m 9,7 km/h (2 Bft) 100,00 %
27.03.2019 12:52 11,1 C 12,2 C 11,7 C 66 % 1031,6 hPa 0,0 l/m 0 min 0 min 252 W/m 12,9 km/h (3 Bft) 100,00 %
27.03.2019 12:54 11,1 C 12,2 C 11,7 C 66 % 1031,6 hPa 0,0 l/m 0 min 0 min 261 W/m 12,9 km/h (3 Bft) 100,00 %
27.03.2019 12:56 11,1 C 12,8 C 11,7 C 67 % 1031,6 hPa 0,0 l/m 0 min 0 min 273 W/m 12,9 km/h (3 Bft) 100,00 %
27.03.2019 12:58 11,1 C 12,8 C 11,7 C 67 % 1031,6 hPa 0,0 l/m 0 min 0 min 290 W/m 9,7 km/h (2 Bft) 100,00 %
27.03.2019 13:00 11,1 C 12,8 C 12,2 C 67 % 1031,6 hPa 0,0 l/m 0 min 0 min 308 W/m 9,7 km/h (2 Bft) 100,00 %
27.03.2019 13:02 11,2 C 13,3 C 12,2 C 67 % 1031,6 hPa 0,0 l/m 0 min 0 min 316 W/m 6,4 km/h (2 Bft) 100,00 %
27.03.2019 13:04 11,2 C 13,3 C 12,2 C 67 % 1031,6 hPa 0,0 l/m 0 min 0 min 315 W/m 6,4 km/h (2 Bft) 100,00 %
27.03.2019 13:06 11,2 C 13,3 C 11,7 C 66 % 1031,5 hPa 0,0 l/m 0 min 0 min 322 W/m 9,7 km/h (2 Bft) 100,00 %
27.03.2019 13:08 11,2 C 13,3 C 12,2 C 67 % 1031,5 hPa 0,0 l/m 0 min 0 min 317 W/m 9,7 km/h (2 Bft) 100,00 %
27.03.2019 13:10 11,3 C 13,9 C 12,8 C 67 % 1031,5 hPa 0,0 l/m 2 min 0 min 326 W/m 9,7 km/h (2 Bft) 100,00 %
27.03.2019 13:12 11,3 C 13,9 C 12,8 C 67 % 1031,5 hPa 0,0 l/m 2 min 0 min 361 W/m 6,4 km/h (2 Bft) 100,00 %
27.03.2019 13:14 11,3 C 13,9 C 12,8 C 66 % 1031,6 hPa 0,0 l/m 2 min 0 min 382 W/m 9,7 km/h (2 Bft) 100,00 %
27.03.2019 13:16 11,3 C 13,9 C 12,8 C 67 % 1031,6 hPa 0,0 l/m 2 min 0 min 368 W/m 9,7 km/h (2 Bft) 100,00 %
27.03.2019 13:18 11,4 C 13,3 C 12,2 C 66 % 1031,5 hPa 0,0 l/m 2 min 0 min 360 W/m 3,2 km/h (1 Bft) 100,00 %
27.03.2019 13:20 11,4 C 13,9 C 12,8 C 65 % 1031,5 hPa 0,0 l/m 2 min 0 min 378 W/m 3,2 km/h (1 Bft) 100,00 %
27.03.2019 13:22 11,4 C 14,4 C 12,8 C 66 % 1031,4 hPa 0,0 l/m 2 min 0 min 385 W/m 9,7 km/h (2 Bft) 100,00 %
27.03.2019 13:24 11,5 C 15,0 C 13,3 C 66 % 1031,5 hPa 0,0 l/m 2 min 0 min 378 W/m 9,7 km/h (2 Bft) 100,00 %
27.03.2019 13:26 11,5 C 15,0 C 13,3 C 67 % 1031,4 hPa 0,0 l/m 2 min 0 min 370 W/m 9,7 km/h (2 Bft) 97,83 %
27.03.2019 13:28 11,6 C 14,4 C 12,8 C 66 % 1031,4 hPa 0,0 l/m 2 min 0 min 364 W/m 9,7 km/h (2 Bft) 97,87 %
27.03.2019 13:30 11,6 C 15,0 C 13,3 C 66 % 1031,4 hPa 0,0 l/m 2 min 0 min 430 W/m 9,7 km/h (2 Bft) 95,74 %
27.03.2019 13:32 11,7 C 17,2 C 14,4 C 67 % 1031,4 hPa 0,0 l/m 2 min 0 min 588 W/m 9,7 km/h (2 Bft) 95,74 %
27.03.2019 13:34 11,8 C 18,9 C 15,6 C 68 % 1031,4 hPa 0,0 l/m 2 min 0 min 627 W/m 16,1 km/h (3 Bft) 97,87 %
27.03.2019 13:36 12,0 C 18,3 C 15,6 C 67 % 1031,3 hPa 0,0 l/m 2 min 0 min 675 W/m 9,7 km/h (2 Bft) 98,28 %
27.03.2019 13:38 12,1 C 16,7 C 14,4 C 66 % 1031,3 hPa 0,0 l/m 2 min 0 min 488 W/m 9,7 km/h (2 Bft) 97,14 %
27.03.2019 13:40 12,1 C 15,6 C 13,9 C 65 % 1031,3 hPa 0,0 l/m 2 min 0 min 377 W/m 9,7 km/h (2 Bft) 97,87 %
27.03.2019 13:42 12,2 C 14,4 C 12,8 C 65 % 1031,3 hPa 0,0 l/m 0 min 0 min 298 W/m 9,7 km/h (2 Bft) 97,87 %
27.03.2019 13:44 12,2 C 13,9 C 12,8 C 65 % 1031,2 hPa 0,0 l/m 0 min 0 min 287 W/m 12,9 km/h (3 Bft) 97,87 %
27.03.2019 13:46 12,2 C 13,9 C 12,8 C 66 % 1031,3 hPa 0,0 l/m 0 min 0 min 278 W/m 16,1 km/h (3 Bft) 93,62 %
27.03.2019 13:48 12,2 C 13,9 C 12,2 C 66 % 1031,2 hPa 0,0 l/m 0 min 0 min 281 W/m 9,7 km/h (2 Bft) 97,87 %
27.03.2019 13:50 12,2 C 13,3 C 12,2 C 66 % 1031,3 hPa 0,0 l/m 0 min 0 min 291 W/m 12,9 km/h (3 Bft) 97,83 %
27.03.2019 13:52 12,2 C 13,9 C 12,8 C 65 % 1031,3 hPa 0,0 l/m 2 min 0 min 316 W/m 9,7 km/h (2 Bft) 97,87 %
27.03.2019 13:54 12,2 C 13,9 C 12,8 C 66 % 1031,3 hPa 0,0 l/m 2 min 0 min 358 W/m 6,4 km/h (2 Bft) 95,74 %
27.03.2019 13:56 12,2 C 13,3 C 12,8 C 64 % 1031,2 hPa 0,0 l/m 2 min 0 min 430 W/m 12,9 km/h (3 Bft) 95,74 %
27.03.2019 13:58 12,2 C 14,4 C 12,8 C 65 % 1031,2 hPa 0,0 l/m 2 min 0 min 443 W/m 16,1 km/h (3 Bft) 95,74 %
27.03.2019 14:00 12,2 C 14,4 C 12,8 C 65 % 1031,3 hPa 0,0 l/m 2 min 0 min 486 W/m 12,9 km/h (3 Bft) 95,74 %
27.03.2019 14:02 12,2 C 15,0 C 12,8 C 64 % 1031,2 hPa 0,0 l/m 2 min 0 min 438 W/m 12,9 km/h (3 Bft) 95,65 %
27.03.2019 14:04 12,2 C 15,0 C 13,3 C 65 % 1031,2 hPa 0,0 l/m 2 min 0 min 469 W/m 12,9 km/h (3 Bft) 95,74 %
27.03.2019 14:06 12,2 C 15,0 C 13,3 C 64 % 1031,2 hPa 0,0 l/m 2 min 0 min 494 W/m 9,7 km/h (2 Bft) 98,31 %
27.03.2019 14:08 12,2 C 15,6 C 13,3 C 64 % 1031,2 hPa 0,0 l/m 2 min 0 min 458 W/m 9,7 km/h (2 Bft) 97,14 %
27.03.2019 14:10 12,2 C 16,7 C 13,9 C 65 % 1031,2 hPa 0,0 l/m 2 min 0 min 456 W/m 9,7 km/h (2 Bft) 97,87 %
27.03.2019 14:12 12,3 C 17,8 C 13,9 C 65 % 1031,2 hPa 0,0 l/m 2 min 0 min 576 W/m 9,7 km/h (2 Bft) 95,65 %
27.03.2019 14:14 12,4 C 17,2 C 13,9 C 64 % 1031,1 hPa 0,0 l/m 2 min 0 min 581 W/m 12,9 km/h (3 Bft) 97,87 %
27.03.2019 14:16 12,4 C 17,2 C 13,9 C 64 % 1031,1 hPa 0,0 l/m 2 min 0 min 483 W/m 6,4 km/h (2 Bft) 97,87 %
27.03.2019 14:18 12,4 C 16,7 C 13,3 C 63 % 1031,0 hPa 0,0 l/m 2 min 0 min 481 W/m 3,2 km/h (1 Bft) 95,74 %
27.03.2019 14:20 12,6 C 17,8 C 14,4 C 64 % 1031,1 hPa 0,0 l/m 2 min 0 min 437 W/m 9,7 km/h (2 Bft) 97,87 %
27.03.2019 14:22 12,6 C 17,2 C 14,4 C 65 % 1031,1 hPa 0,0 l/m 2 min 0 min 470 W/m 12,9 km/h (3 Bft) 97,87 %
27.03.2019 14:24 12,7 C 16,7 C 13,9 C 64 % 1031,1 hPa 0,0 l/m 2 min 0 min 408 W/m 16,1 km/h (3 Bft) 95,74 %
27.03.2019 14:26 12,7 C 16,1 C 13,3 C 63 % 1031,1 hPa 0,0 l/m 2 min 0 min 323 W/m 6,4 km/h (2 Bft) 97,83 %
27.03.2019 14:28 12,8 C 15,6 C 12,8 C 64 % 1031,1 hPa 0,0 l/m 0 min 0 min 257 W/m 6,4 km/h (2 Bft) 97,87 %
27.03.2019 14:30 12,8 C 15,0 C 12,8 C 64 % 1031,2 hPa 0,0 l/m 0 min 0 min 214 W/m 9,7 km/h (2 Bft) 97,87 %
27.03.2019 14:32 12,8 C 13,9 C 12,2 C 63 % 1031,1 hPa 0,0 l/m 0 min 0 min 187 W/m 9,7 km/h (2 Bft) 97,87 %
27.03.2019 14:34 12,7 C 13,3 C 12,2 C 64 % 1031,2 hPa 0,0 l/m 0 min 0 min 171 W/m 9,7 km/h (2 Bft) 97,87 %
27.03.2019 14:36 12,7 C 12,8 C 12,2 C 64 % 1031,2 hPa 0,0 l/m 0 min 0 min 167 W/m 12,9 km/h (3 Bft) 98,28 %
27.03.2019 14:38 12,6 C 12,8 C 11,7 C 65 % 1031,2 hPa 0,0 l/m 0 min 0 min 166 W/m 16,1 km/h (3 Bft) 97,14 %
27.03.2019 14:40 12,6 C 12,8 C 11,7 C 64 % 1031,2 hPa 0,0 l/m 0 min 0 min 176 W/m 9,7 km/h (2 Bft) 100,00 %
27.03.2019 14:42 12,6 C 12,8 C 12,2 C 65 % 1031,3 hPa 0,0 l/m 0 min 0 min 181 W/m 12,9 km/h (3 Bft) 100,00 %
27.03.2019 14:44 12,5 C 12,8 C 12,2 C 65 % 1031,2 hPa 0,0 l/m 0 min 0 min 184 W/m 6,4 km/h (2 Bft) 100,00 %
27.03.2019 14:46 12,5 C 12,8 C 12,2 C 65 % 1031,2 hPa 0,0 l/m 0 min 0 min 189 W/m 3,2 km/h (1 Bft) 44,44 %
27.03.2019 14:48 12,5 C 12,8 C 12,2 C 64 % 1031,2 hPa 0,0 l/m 0 min 0 min 187 W/m 6,4 km/h (2 Bft) 97,87 %
27.03.2019 14:50 12,4 C 12,8 C 12,2 C 65 % 1031,2 hPa 0,0 l/m 0 min 0 min 189 W/m 12,9 km/h (3 Bft) 100,00 %
27.03.2019 14:52 12,4 C 12,8 C 12,2 C 65 % 1031,2 hPa 0,0 l/m 0 min 0 min 197 W/m 9,7 km/h (2 Bft) 97,87 %
27.03.2019 14:54 12,4 C 12,8 C 12,2 C 64 % 1031,2 hPa 0,0 l/m 0 min 0 min 203 W/m 9,7 km/h (2 Bft) 100,00 %
27.03.2019 14:56 12,3 C 12,8 C 12,2 C 64 % 1031,2 hPa 0,0 l/m 0 min 0 min 200 W/m 9,7 km/h (2 Bft) 100,00 %
27.03.2019 14:58 12,3 C 12,8 C 12,2 C 64 % 1031,2 hPa 0,0 l/m 0 min 0 min 189 W/m 16,1 km/h (3 Bft) 97,87 %
27.03.2019 15:00 12,3 C 12,8 C 11,7 C 64 % 1031,2 hPa 0,0 l/m 0 min 0 min 176 W/m 6,4 km/h (2 Bft) 100,00 %
27.03.2019 15:02 12,2 C 12,8 C 11,7 C 64 % 1031,2 hPa 0,0 l/m 0 min 0 min 160 W/m 6,4 km/h (2 Bft) 100,00 %
27.03.2019 15:04 12,2 C 12,2 C 11,7 C 64 % 1031,2 hPa 0,0 l/m 0 min 0 min 149 W/m 12,9 km/h (3 Bft) 97,87 %
27.03.2019 15:06 12,2 C 12,2 C 11,7 C 64 % 1031,2 hPa 0,0 l/m 0 min 0 min 134 W/m 9,7 km/h (2 Bft) 100,00 %
27.03.2019 15:08 12,1 C 12,2 C 11,7 C 65 % 1031,3 hPa 0,0 l/m 0 min 0 min 123 W/m 9,7 km/h (2 Bft) 100,00 %
27.03.2019 15:10 12,1 C 11,7 C 11,1 C 66 % 1031,3 hPa 0,0 l/m 0 min 0 min 120 W/m 12,9 km/h (3 Bft) 97,87 %
27.03.2019 15:12 12,0 C 11,7 C 11,1 C 66 % 1031,3 hPa 0,0 l/m 0 min 0 min 123 W/m 9,7 km/h (2 Bft) 100,00 %
27.03.2019 15:14 12,0 C 11,7 C 11,1 C 67 % 1031,3 hPa 0,0 l/m 0 min 0 min 138 W/m 12,9 km/h (3 Bft) 97,83 %
27.03.2019 15:16 11,9 C 11,7 C 11,1 C 67 % 1031,3 hPa 0,0 l/m 0 min 0 min 146 W/m 12,9 km/h (3 Bft) 97,87 %
27.03.2019 15:18 11,9 C 11,7 C 11,7 C 67 % 1031,3 hPa 0,0 l/m 0 min 0 min 152 W/m 6,4 km/h (2 Bft) 97,87 %
27.03.2019 15:20 11,8 C 11,7 C 11,7 C 67 % 1031,4 hPa 0,0 l/m 0 min 0 min 158 W/m 6,4 km/h (2 Bft) 100,00 %
27.03.2019 15:22 11,8 C 11,7 C 11,7 C 68 % 1031,3 hPa 0,0 l/m 0 min 0 min 163 W/m 9,7 km/h (2 Bft) 97,87 %
27.03.2019 15:24 11,8 C 11,7 C 11,7 C 67 % 1031,3 hPa 0,0 l/m 0 min 0 min 168 W/m 16,1 km/h (3 Bft) 97,87 %
27.03.2019 15:26 11,7 C 11,7 C 11,7 C 67 % 1031,3 hPa 0,0 l/m 0 min 0 min 178 W/m 12,9 km/h (3 Bft) 97,83 %
27.03.2019 15:28 11,7 C 11,7 C 11,7 C 67 % 1031,3 hPa 0,0 l/m 0 min 0 min 179 W/m 12,9 km/h (3 Bft) 100,00 %
27.03.2019 15:30 11,7 C 12,2 C 11,7 C 68 % 1031,3 hPa 0,0 l/m 0 min 0 min 187 W/m 9,7 km/h (2 Bft) 100,00 %
27.03.2019 15:32 11,6 C 12,2 C 11,7 C 68 % 1031,3 hPa 0,0 l/m 0 min 0 min 203 W/m 6,4 km/h (2 Bft) 100,00 %
27.03.2019 15:34 11,7 C 12,2 C 11,7 C 68 % 1031,3 hPa 0,0 l/m 0 min 0 min 202 W/m 6,4 km/h (2 Bft) 97,87 %
27.03.2019 15:36 11,6 C 12,2 C 12,2 C 68 % 1031,3 hPa 0,0 l/m 0 min 0 min 213 W/m 9,7 km/h (2 Bft) 97,87 %
27.03.2019 15:38 11,7 C 12,8 C 12,2 C 68 % 1031,2 hPa 0,0 l/m 0 min 0 min 217 W/m 12,9 km/h (3 Bft) 100,00 %
27.03.2019 15:40 11,7 C 12,8 C 12,2 C 68 % 1031,1 hPa 0,0 l/m 0 min 0 min 231 W/m 12,9 km/h (3 Bft) 97,87 %
27.03.2019 15:42 11,6 C 12,8 C 12,2 C 68 % 1031,1 hPa 0,0 l/m 0 min 0 min 231 W/m 6,4 km/h (2 Bft) 97,87 %
27.03.2019 15:44 11,7 C 12,8 C 12,2 C 68 % 1031,1 hPa 0,0 l/m 0 min 0 min 215 W/m 6,4 km/h (2 Bft) 93,62 %
27.03.2019 15:46 11,7 C 12,8 C 12,2 C 68 % 1031,1 hPa 0,0 l/m 0 min 0 min 191 W/m 9,7 km/h (2 Bft) 97,87 %
27.03.2019 15:48 11,7 C 12,8 C 11,7 C 68 % 1031,2 hPa 0,0 l/m 0 min 0 min 167 W/m 6,4 km/h (2 Bft) 95,74 %
27.03.2019 15:50 11,7 C 12,2 C 11,7 C 68 % 1031,2 hPa 0,0 l/m 0 min 0 min 168 W/m 6,4 km/h (2 Bft) 95,65 %
27.03.2019 15:52 11,7 C 12,2 C 11,7 C 68 % 1031,2 hPa 0,0 l/m 0 min 0 min 171 W/m 3,2 km/h (1 Bft) 95,74 %
27.03.2019 15:54 11,7 C 12,2 C 11,7 C 68 % 1031,1 hPa 0,0 l/m 0 min 0 min 167 W/m 6,4 km/h (2 Bft) 95,74 %
27.03.2019 15:56 11,7 C 12,2 C 11,7 C 67 % 1031,2 hPa 0,0 l/m 0 min 0 min 175 W/m 3,2 km/h (1 Bft) 95,74 %
27.03.2019 15:58 11,7 C 12,2 C 11,7 C 68 % 1031,2 hPa 0,0 l/m 0 min 0 min 185 W/m 3,2 km/h (1 Bft) 95,74 %
27.03.2019 16:00 11,7 C 12,2 C 11,7 C 68 % 1031,2 hPa 0,0 l/m 0 min 0 min 196 W/m 0,0 km/h (0 Bft) 95,74 %
27.03.2019 16:02 11,7 C 12,2 C 11,7 C 68 % 1031,2 hPa 0,0 l/m 0 min 0 min 207 W/m 0,0 km/h (0 Bft) 91,30 %
27.03.2019 16:04 11,7 C 12,2 C 11,7 C 67 % 1031,2 hPa 0,0 l/m 0 min 0 min 199 W/m 0,0 km/h (0 Bft) 95,74 %
27.03.2019 16:06 11,7 C 12,2 C 11,7 C 67 % 1031,2 hPa 0,0 l/m 0 min 0 min 178 W/m 9,7 km/h (2 Bft) 95,74 %
27.03.2019 16:08 11,8 C 12,2 C 11,7 C 68 % 1031,2 hPa 0,0 l/m 0 min 0 min 171 W/m 9,7 km/h (2 Bft) 95,74 %
27.03.2019 16:10 11,8 C 12,8 C 11,7 C 68 % 1031,2 hPa 0,0 l/m 0 min 0 min 193 W/m 6,4 km/h (2 Bft) 93,62 %
27.03.2019 16:12 11,8 C 12,8 C 11,7 C 69 % 1031,2 hPa 0,0 l/m 2 min 0 min 220 W/m 6,4 km/h (2 Bft) 95,65 %
27.03.2019 16:14 11,8 C 12,8 C 11,7 C 68 % 1031,2 hPa 0,0 l/m 2 min 0 min 204 W/m 6,4 km/h (2 Bft) 95,74 %
27.03.2019 16:16 11,8 C 13,3 C 12,2 C 68 % 1031,1 hPa 0,0 l/m 2 min 0 min 226 W/m 0,0 km/h (0 Bft) 93,62 %
27.03.2019 16:18 11,9 C 13,3 C 12,2 C 68 % 1031,1 hPa 0,0 l/m 2 min 0 min 228 W/m 9,7 km/h (2 Bft) 95,74 %
27.03.2019 16:20 11,9 C 12,8 C 11,7 C 68 % 1031,1 hPa 0,0 l/m 2 min 0 min 202 W/m 6,4 km/h (2 Bft) 93,62 %
27.03.2019 16:22 11,9 C 12,8 C 11,7 C 68 % 1031,1 hPa 0,0 l/m 2 min 0 min 215 W/m 3,2 km/h (1 Bft) 95,74 %
27.03.2019 16:24 11,9 C 13,3 C 11,7 C 68 % 1031,1 hPa 0,0 l/m 2 min 0 min 212 W/m 3,2 km/h (1 Bft) 95,65 %
27.03.2019 16:26 11,9 C 13,3 C 11,7 C 68 % 1031,1 hPa 0,0 l/m 2 min 0 min 216 W/m 3,2 km/h (1 Bft) 93,62 %
27.03.2019 16:28 11,9 C 13,3 C 11,7 C 68 % 1031,1 hPa 0,0 l/m 0 min 0 min 184 W/m 3,2 km/h (1 Bft) 95,74 %
27.03.2019 16:30 11,9 C 12,8 C 11,7 C 68 % 1031,1 hPa 0,0 l/m 0 min 0 min 180 W/m 6,4 km/h (2 Bft) 95,74 %
27.03.2019 16:32 11,9 C 12,2 C 11,7 C 67 % 1031,1 hPa 0,0 l/m 0 min 0 min 177 W/m 6,4 km/h (2 Bft) 97,87 %
27.03.2019 16:34 11,9 C 12,2 C 11,7 C 68 % 1031,0 hPa 0,0 l/m 0 min 0 min 160 W/m 12,9 km/h (3 Bft) 97,87 %
27.03.2019 16:36 11,9 C 11,7 C 11,1 C 67 % 1031,0 hPa 0,0 l/m 0 min 0 min 143 W/m 6,4 km/h (2 Bft) 95,65 %
27.03.2019 16:38 11,9 C 11,7 C 11,1 C 67 % 1031,0 hPa 0,0 l/m 0 min 0 min 140 W/m 6,4 km/h (2 Bft) 97,87 %
27.03.2019 16:40 11,9 C 12,2 C 11,1 C 67 % 1031,1 hPa 0,0 l/m 0 min 0 min 133 W/m 6,4 km/h (2 Bft) 95,74 %
27.03.2019 16:42 11,9 C 11,7 C 11,1 C 67 % 1031,1 hPa 0,0 l/m 0 min 0 min 131 W/m 6,4 km/h (2 Bft) 100,00 %
27.03.2019 16:44 11,9 C 11,7 C 11,1 C 68 % 1031,1 hPa 0,0 l/m 0 min 0 min 133 W/m 9,7 km/h (2 Bft) 95,74 %
27.03.2019 16:46 11,8 C 11,7 C 11,1 C 68 % 1031,1 hPa 0,0 l/m 0 min 0 min 124 W/m 16,1 km/h (3 Bft) 97,87 %
27.03.2019 16:48 11,8 C 11,7 C 11,1 C 67 % 1031,0 hPa 0,0 l/m 0 min 0 min 112 W/m 9,7 km/h (2 Bft) 97,83 %
27.03.2019 16:50 11,8 C 11,7 C 11,1 C 67 % 1031,1 hPa 0,0 l/m 0 min 0 min 109 W/m 6,4 km/h (2 Bft) 95,74 %
27.03.2019 16:52 11,8 C 11,7 C 11,1 C 67 % 1031,1 hPa 0,0 l/m 0 min 0 min 107 W/m 9,7 km/h (2 Bft) 97,87 %
27.03.2019 16:54 11,7 C 11,7 C 11,1 C 68 % 1031,1 hPa 0,0 l/m 0 min 0 min 109 W/m 6,4 km/h (2 Bft) 97,87 %
27.03.2019 16:56 11,7 C 11,7 C 11,1 C 68 % 1031,1 hPa 0,0 l/m 0 min 0 min 113 W/m 9,7 km/h (2 Bft) 97,87 %
27.03.2019 16:58 11,7 C 11,7 C 11,1 C 68 % 1031,1 hPa 0,0 l/m 0 min 0 min 119 W/m 6,4 km/h (2 Bft) 97,87 %
27.03.2019 17:00 11,7 C 11,7 C 11,1 C 68 % 1031,1 hPa 0,0 l/m 0 min 0 min 138 W/m 3,2 km/h (1 Bft) 93,48 %
27.03.2019 17:02 11,7 C 11,7 C 11,1 C 68 % 1031,1 hPa 0,0 l/m 0 min 0 min 138 W/m 3,2 km/h (1 Bft) 97,87 %
27.03.2019 17:04 11,7 C 11,7 C 11,1 C 69 % 1031,1 hPa 0,0 l/m 0 min 0 min 134 W/m 3,2 km/h (1 Bft) 97,87 %
27.03.2019 17:06 11,7 C 11,7 C 11,1 C 68 % 1031,0 hPa 0,0 l/m 0 min 0 min 135 W/m 6,4 km/h (2 Bft) 97,87 %
27.03.2019 17:08 11,7 C 11,7 C 11,1 C 68 % 1031,0 hPa 0,0 l/m 0 min 0 min 134 W/m 0,0 km/h (0 Bft) 97,87 %
27.03.2019 17:10 11,6 C 11,7 C 11,1 C 67 % 1031,0 hPa 0,0 l/m 0 min 0 min 134 W/m 0,0 km/h (0 Bft) 95,74 %
27.03.2019 17:12 11,7 C 11,7 C 11,1 C 68 % 1031,0 hPa 0,0 l/m 2 min 0 min 138 W/m 6,4 km/h (2 Bft) 97,83 %
27.03.2019 17:14 11,6 C 11,7 C 11,1 C 68 % 1031,0 hPa 0,0 l/m 2 min 0 min 148 W/m 3,2 km/h (1 Bft) 97,87 %
27.03.2019 17:16 11,6 C 11,7 C 11,1 C 68 % 1031,0 hPa 0,0 l/m 2 min 0 min 152 W/m 6,4 km/h (2 Bft) 95,74 %
27.03.2019 17:18 11,6 C 11,7 C 11,1 C 68 % 1031,0 hPa 0,0 l/m 2 min 0 min 150 W/m 6,4 km/h (2 Bft) 97,87 %
27.03.2019 17:20 11,6 C 12,2 C 11,1 C 68 % 1031,0 hPa 0,0 l/m 2 min 0 min 140 W/m 6,4 km/h (2 Bft) 97,87 %
27.03.2019 17:22 11,6 C 12,2 C 11,1 C 69 % 1031,1 hPa 0,0 l/m 0 min 0 min 118 W/m 3,2 km/h (1 Bft) 97,87 %
27.03.2019 17:24 11,6 C 11,7 C 11,1 C 68 % 1031,0 hPa 0,0 l/m 0 min 0 min 105 W/m 3,2 km/h (1 Bft) 95,65 %
27.03.2019 17:26 11,6 C 11,7 C 11,1 C 68 % 1031,0 hPa 0,0 l/m 0 min 0 min 98 W/m 6,4 km/h (2 Bft) 97,87 %
27.03.2019 17:28 11,6 C 11,7 C 11,1 C 68 % 1031,1 hPa 0,0 l/m 0 min 0 min 91 W/m 0,0 km/h (0 Bft) 97,87 %
27.03.2019 17:30 11,6 C 11,7 C 10,6 C 69 % 1031,1 hPa 0,0 l/m 0 min 0 min 83 W/m 3,2 km/h (1 Bft) 97,87 %
27.03.2019 17:32 11,6 C 11,1 C 10,6 C 68 % 1031,1 hPa 0,0 l/m 0 min 0 min 76 W/m 0,0 km/h (0 Bft) 100,00 %
27.03.2019 17:34 11,6 C 11,1 C 10,6 C 68 % 1031,1 hPa 0,0 l/m 0 min 0 min 70 W/m 0,0 km/h (0 Bft) 97,83 %
27.03.2019 17:36 11,6 C 11,1 C 10,6 C 68 % 1031,0 hPa 0,0 l/m 0 min 0 min 71 W/m 6,4 km/h (2 Bft) 95,74 %
27.03.2019 17:38 11,6 C 11,1 C 10,6 C 68 % 1031,0 hPa 0,0 l/m 0 min 0 min 78 W/m 3,2 km/h (1 Bft) 100,00 %
27.03.2019 17:40 11,6 C 11,1 C 10,6 C 68 % 1031,0 hPa 0,0 l/m 0 min 0 min 83 W/m 3,2 km/h (1 Bft) 100,00 %
27.03.2019 17:42 11,5 C 11,1 C 10,6 C 68 % 1031,0 hPa 0,0 l/m 0 min 0 min 86 W/m 9,7 km/h (2 Bft) 100,00 %
27.03.2019 17:44 11,5 C 11,1 C 10,6 C 68 % 1031,1 hPa 0,0 l/m 0 min 0 min 89 W/m 0,0 km/h (0 Bft) 97,87 %
27.03.2019 17:46 11,5 C 11,1 C 10,6 C 68 % 1031,1 hPa 0,0 l/m 0 min 0 min 87 W/m 3,2 km/h (1 Bft) 100,00 %
27.03.2019 17:48 11,4 C 11,1 C 10,6 C 68 % 1031,1 hPa 0,0 l/m 0 min 0 min 86 W/m 3,2 km/h (1 Bft) 100,00 %
27.03.2019 17:50 11,4 C 10,6 C 10,6 C 68 % 1031,1 hPa 0,0 l/m 2 min 0 min 90 W/m 6,4 km/h (2 Bft) 95,83 %
27.03.2019 17:52 11,4 C 10,6 C 10,6 C 68 % 1031,1 hPa 0,0 l/m 2 min 0 min 92 W/m 3,2 km/h (1 Bft) 100,00 %
27.03.2019 17:54 11,4 C 10,6 C 10,6 C 68 % 1031,0 hPa 0,0 l/m 2 min 0 min 90 W/m 3,2 km/h (1 Bft) 100,00 %
27.03.2019 17:56 11,3 C 10,6 C 10,0 C 68 % 1031,0 hPa 0,0 l/m 2 min 0 min 82 W/m 3,2 km/h (1 Bft) 97,87 %
27.03.2019 17:58 11,3 C 10,6 C 10,0 C 68 % 1031,0 hPa 0,0 l/m 0 min 0 min 73 W/m 3,2 km/h (1 Bft) 100,00 %
27.03.2019 18:00 11,3 C 10,6 C 10,0 C 69 % 1031,1 hPa 0,0 l/m 0 min 0 min 70 W/m 3,2 km/h (1 Bft) 100,00 %
27.03.2019 18:02 11,3 C 10,6 C 10,0 C 69 % 1031,0 hPa 0,0 l/m 0 min 0 min 66 W/m 3,2 km/h (1 Bft) 100,00 %
27.03.2019 18:04 11,3 C 10,6 C 10,0 C 69 % 1031,0 hPa 0,0 l/m 0 min 0 min 59 W/m 3,2 km/h (1 Bft) 100,00 %
27.03.2019 18:08 11,2 C 10,6 C 10,0 C 69 % 1031,0 hPa 0,0 l/m 0 min 0 min 52 W/m 6,4 km/h (2 Bft) 100,00 %
27.03.2019 18:10 11,2 C 10,0 C 9,4 C 69 % 1031,0 hPa 0,0 l/m 0 min 0 min 49 W/m 0,0 km/h (0 Bft) 100,00 %
27.03.2019 18:12 11,2 C 10,0 C 9,4 C 69 % 1031,1 hPa 0,0 l/m 0 min 0 min 47 W/m 3,2 km/h (1 Bft) 97,87 %
27.03.2019 18:14 11,2 C 10,0 C 9,4 C 69 % 1031,1 hPa 0,0 l/m 0 min 0 min 45 W/m 0,0 km/h (0 Bft) 97,87 %
27.03.2019 18:16 11,1 C 10,0 C 9,4 C 69 % 1031,1 hPa 0,0 l/m 0 min 0 min 43 W/m 3,2 km/h (1 Bft) 97,87 %
27.03.2019 18:18 11,1 C 10,0 C 9,4 C 69 % 1031,1 hPa 0,0 l/m 0 min 0 min 41 W/m 6,4 km/h (2 Bft) 100,00 %
27.03.2019 18:20 11,1 C 10,0 C 9,4 C 69 % 1031,0 hPa 0,0 l/m 0 min 0 min 40 W/m 0,0 km/h (0 Bft) 97,87 %
27.03.2019 18:22 11,0 C 10,0 C 9,4 C 69 % 1031,1 hPa 0,0 l/m 0 min 0 min 39 W/m 0,0 km/h (0 Bft) 100,00 %
27.03.2019 18:24 11,0 C 10,0 C 9,4 C 70 % 1031,1 hPa 0,0 l/m 0 min 0 min 37 W/m 0,0 km/h (0 Bft) 100,00 %
27.03.2019 18:26 11,0 C 9,4 C 8,9 C 70 % 1031,1 hPa 0,0 l/m 0 min 0 min 34 W/m 3,2 km/h (1 Bft) 97,87 %
27.03.2019 18:28 10,9 C 9,4 C 8,9 C 71 % 1031,3 hPa 0,0 l/m 0 min 0 min 31 W/m 0,0 km/h (0 Bft) 97,87 %
27.03.2019 18:30 10,9 C 9,4 C 8,9 C 71 % 1031,3 hPa 0,0 l/m 0 min 0 min 28 W/m 0,0 km/h (0 Bft) 97,87 %
27.03.2019 18:32 10,9 C 9,4 C 8,9 C 71 % 1031,2 hPa 0,0 l/m 0 min 0 min 27 W/m 0,0 km/h (0 Bft) 97,87 %
27.03.2019 18:34 10,8 C 9,4 C 8,9 C 71 % 1031,2 hPa 0,0 l/m 2 min 0 min 27 W/m 0,0 km/h (0 Bft) 97,83 %
27.03.2019 18:36 10,8 C 9,4 C 8,9 C 71 % 1031,2 hPa 0,0 l/m 2 min 0 min 30 W/m 0,0 km/h (0 Bft) 95,74 %
27.03.2019 18:38 10,8 C 9,4 C 8,9 C 71 % 1031,3 hPa 0,0 l/m 2 min 0 min 27 W/m 0,0 km/h (0 Bft) 93,62 %
27.03.2019 18:40 10,7 C 9,4 C 8,9 C 71 % 1031,3 hPa 0,0 l/m 2 min 0 min 25 W/m 3,2 km/h (1 Bft) 95,74 %
27.03.2019 18:42 10,7 C 9,4 C 8,9 C 71 % 1031,3 hPa 0,0 l/m 2 min 0 min 21 W/m 0,0 km/h (0 Bft) 97,87 %
27.03.2019 18:44 10,7 C 9,4 C 8,9 C 72 % 1031,3 hPa 0,0 l/m 0 min 0 min 17 W/m 0,0 km/h (0 Bft) 97,83 %
27.03.2019 18:46 10,7 C 9,4 C 8,9 C 72 % 1031,3 hPa 0,0 l/m 0 min 0 min 14 W/m 0,0 km/h (0 Bft) 95,74 %
27.03.2019 18:48 10,6 C 9,4 C 8,9 C 71 % 1031,3 hPa 0,0 l/m 0 min 0 min 12 W/m 0,0 km/h (0 Bft) 95,74 %
27.03.2019 18:50 10,6 C 9,4 C 8,9 C 71 % 1031,2 hPa 0,0 l/m 0 min 0 min 10 W/m 0,0 km/h (0 Bft) 93,62 %
27.03.2019 18:52 10,6 C 9,4 C 8,3 C 71 % 1031,3 hPa 0,0 l/m 0 min 0 min 9 W/m 3,2 km/h (1 Bft) 93,62 %
27.03.2019 18:54 10,6 C 9,4 C 8,9 C 71 % 1031,3 hPa 0,0 l/m 0 min 0 min 9 W/m 0,0 km/h (0 Bft) 93,62 %
27.03.2019 18:56 10,5 C 9,4 C 8,3 C 71 % 1031,3 hPa 0,0 l/m 0 min 0 min 7 W/m 0,0 km/h (0 Bft) 91,30 %
27.03.2019 18:58 10,5 C 9,4 C 8,9 C 72 % 1031,3 hPa 0,0 l/m 0 min 0 min 7 W/m 0,0 km/h (0 Bft) 95,74 %
27.03.2019 19:00 10,4 C 9,4 C 8,9 C 72 % 1031,3 hPa 0,0 l/m 0 min 0 min 7 W/m 0,0 km/h (0 Bft) 95,74 %
27.03.2019 19:02 10,4 C 9,4 C 8,3 C 72 % 1031,3 hPa 0,0 l/m 0 min 0 min 5 W/m 0,0 km/h (0 Bft) 93,62 %
27.03.2019 19:04 10,4 C 9,4 C 8,3 C 72 % 1031,3 hPa 0,0 l/m 0 min 0 min 4 W/m 0,0 km/h (0 Bft) 95,74 %
27.03.2019 19:06 10,4 C 9,4 C 8,9 C 72 % 1031,4 hPa 0,0 l/m 0 min 0 min 0 W/m 0,0 km/h (0 Bft) 95,74 %
27.03.2019 19:08 10,4 C 9,4 C 8,9 C 73 % 1031,4 hPa 0,0 l/m 0 min 0 min 0 W/m 0,0 km/h (0 Bft) 95,65 %
27.03.2019 19:10 10,3 C 9,4 C 8,9 C 73 % 1031,5 hPa 0,0 l/m 0 min 0 min 0 W/m 0,0 km/h (0 Bft) 95,74 %
27.03.2019 19:12 10,3 C 9,4 C 8,9 C 73 % 1031,5 hPa 0,0 l/m 0 min 0 min 0 W/m 0,0 km/h (0 Bft) 95,74 %
27.03.2019 19:14 10,3 C 9,4 C 8,9 C 73 % 1031,5 hPa 0,0 l/m 0 min 0 min 0 W/m 0,0 km/h (0 Bft) 93,62 %
27.03.2019 19:16 10,3 C 9,4 C 8,9 C 73 % 1031,5 hPa 0,0 l/m 0 min 0 min 0 W/m 0,0 km/h (0 Bft) 95,74 %
27.03.2019 19:18 10,3 C 9,4 C 8,9 C 73 % 1031,6 hPa 0,0 l/m 0 min 0 min 0 W/m 0,0 km/h (0 Bft) 97,87 %
27.03.2019 19:20 10,3 C 9,4 C 8,9 C 73 % 1031,4 hPa 0,0 l/m 0 min 0 min 0 W/m 3,2 km/h (1 Bft) 97,83 %
27.03.2019 19:22 10,2 C 9,4 C 8,9 C 73 % 1031,5 hPa 0,0 l/m 0 min 0 min 0 W/m 3,2 km/h (1 Bft) 97,87 %
27.03.2019 19:24 10,2 C 9,4 C 8,9 C 73 % 1031,5 hPa 0,0 l/m 0 min 0 min 0 W/m 3,2 km/h (1 Bft) 95,74 %
27.03.2019 19:26 10,2 C 9,4 C 8,9 C 73 % 1031,5 hPa 0,0 l/m 0 min 0 min 0 W/m 3,2 km/h (1 Bft) 95,74 %
27.03.2019 19:28 10,2 C 9,4 C 8,9 C 73 % 1031,6 hPa 0,0 l/m 0 min 0 min 0 W/m 3,2 km/h (1 Bft) 97,87 %
27.03.2019 19:30 10,2 C 9,4 C 8,9 C 73 % 1031,6 hPa 0,0 l/m 0 min 0 min 0 W/m 0,0 km/h (0 Bft) 97,87 %
27.03.2019 19:32 10,2 C 9,4 C 8,9 C 73 % 1031,6 hPa 0,0 l/m 0 min 0 min 0 W/m 0,0 km/h (0 Bft) 95,65 %
27.03.2019 19:34 10,2 C 9,4 C 8,9 C 73 % 1031,6 hPa 0,0 l/m 0 min 0 min 0 W/m 0,0 km/h (0 Bft) 97,87 %
27.03.2019 19:36 10,2 C 9,4 C 8,9 C 74 % 1031,6 hPa 0,0 l/m 0 min 0 min 0 W/m 0,0 km/h (0 Bft) 100,00 %
27.03.2019 19:38 10,2 C 9,4 C 8,9 C 74 % 1031,6 hPa 0,0 l/m 0 min 0 min 0 W/m 0,0 km/h (0 Bft) 100,00 %
27.03.2019 19:40 10,2 C 9,4 C 8,9 C 74 % 1031,6 hPa 0,0 l/m 0 min 0 min 0 W/m 0,0 km/h (0 Bft) 100,00 %
27.03.2019 19:42 10,1 C 9,4 C 8,9 C 74 % 1031,6 hPa 0,0 l/m 0 min 0 min 0 W/m 0,0 km/h (0 Bft) 100,00 %
27.03.2019 19:44 10,1 C 9,4 C 8,9 C 74 % 1031,6 hPa 0,0 l/m 0 min 0 min 0 W/m 0,0 km/h (0 Bft) 100,00 %
27.03.2019 19:46 10,1 C 9,4 C 8,9 C 74 % 1031,6 hPa 0,0 l/m 0 min 0 min 0 W/m 0,0 km/h (0 Bft) 100,00 %
27.03.2019 19:48 10,1 C 9,4 C 8,9 C 74 % 1031,6 hPa 0,0 l/m 0 min 0 min 0 W/m 0,0 km/h (0 Bft) 100,00 %
27.03.2019 19:50 10,1 C 9,4 C 8,9 C 74 % 1031,7 hPa 0,0 l/m 0 min 0 min 0 W/m 0,0 km/h (0 Bft) 100,00 %
27.03.2019 19:52 10,1 C 9,4 C 8,9 C 74 % 1031,8 hPa 0,0 l/m 0 min 0 min 0 W/m 0,0 km/h (0 Bft) 100,00 %
27.03.2019 19:54 10,1 C 9,4 C 8,3 C 74 % 1031,7 hPa 0,0 l/m 0 min 0 min 0 W/m 0,0 km/h (0 Bft) 100,00 %
27.03.2019 19:56 10,1 C 9,4 C 8,3 C 74 % 1031,8 hPa 0,0 l/m 0 min 0 min 0 W/m 0,0 km/h (0 Bft) 100,00 %
27.03.2019 19:58 10,1 C 9,4 C 8,3 C 75 % 1031,7 hPa 0,0 l/m 0 min 0 min 0 W/m 0,0 km/h (0 Bft) 100,00 %
27.03.2019 20:00 10,1 C 9,4 C 8,3 C 75 % 1031,8 hPa 0,0 l/m 0 min 0 min 0 W/m 0,0 km/h (0 Bft) 97,87 %
27.03.2019 20:02 10,1 C 9,4 C 8,3 C 75 % 1031,8 hPa 0,0 l/m 0 min 0 min 0 W/m 0,0 km/h (0 Bft) 95,74 %
27.03.2019 20:04 10,1 C 9,4 C 8,9 C 75 % 1031,8 hPa 0,0 l/m 0 min 0 min 0 W/m 3,2 km/h (1 Bft) 100,00 %
27.03.2019 20:06 10,0 C 9,4 C 8,9 C 75 % 1031,8 hPa 0,0 l/m 0 min 0 min 0 W/m 0,0 km/h (0 Bft) 97,83 %
27.03.2019 20:08 10,0 C 9,4 C 8,9 C 75 % 1031,8 hPa 0,0 l/m 0 min 0 min 0 W/m 3,2 km/h (1 Bft) 100,00 %
27.03.2019 20:10 10,0 C 9,4 C 8,9 C 75 % 1031,8 hPa 0,0 l/m 0 min 0 min 0 W/m 0,0 km/h (0 Bft) 95,74 %
27.03.2019 20:12 10,0 C 9,4 C 8,9 C 75 % 1031,8 hPa 0,0 l/m 0 min 0 min 0 W/m 3,2 km/h (1 Bft) 97,87 %
27.03.2019 20:14 10,0 C 9,4 C 8,9 C 75 % 1031,9 hPa 0,0 l/m 0 min 0 min 0 W/m 3,2 km/h (1 Bft) 97,87 %
27.03.2019 20:16 10,0 C 9,4 C 8,9 C 76 % 1031,8 hPa 0,0 l/m 0 min 0 min 0 W/m 3,2 km/h (1 Bft) 97,87 %
27.03.2019 20:18 10,0 C 9,4 C 8,9 C 75 % 1031,8 hPa 0,0 l/m 0 min 0 min 0 W/m 3,2 km/h (1 Bft) 95,65 %
27.03.2019 20:20 10,0 C 9,4 C 8,9 C 75 % 1031,8 hPa 0,0 l/m 0 min 0 min 0 W/m 0,0 km/h (0 Bft) 97,87 %
27.03.2019 20:22 10,0 C 9,4 C 8,9 C 75 % 1031,8 hPa 0,0 l/m 0 min 0 min 0 W/m 3,2 km/h (1 Bft) 97,87 %
27.03.2019 20:24 9,9 C 9,4 C 8,9 C 76 % 1031,9 hPa 0,0 l/m 0 min 0 min 0 W/m 6,4 km/h (2 Bft) 97,87 %
27.03.2019 20:26 9,9 C 9,4 C 8,9 C 75 % 1031,9 hPa 0,0 l/m 0 min 0 min 0 W/m 6,4 km/h (2 Bft) 97,87 %
27.03.2019 20:28 9,9 C 9,4 C 8,9 C 75 % 1031,9 hPa 0,0 l/m 0 min 0 min 0 W/m 3,2 km/h (1 Bft) 97,87 %
27.03.2019 20:30 9,9 C 9,4 C 8,9 C 75 % 1031,9 hPa 0,0 l/m 0 min 0 min 0 W/m 6,4 km/h (2 Bft) 97,83 %
27.03.2019 20:32 9,9 C 9,4 C 8,9 C 75 % 1031,9 hPa 0,0 l/m 0 min 0 min 0 W/m 3,2 km/h (1 Bft) 97,87 %
27.03.2019 20:34 9,9 C 9,4 C 8,9 C 76 % 1031,9 hPa 0,0 l/m 0 min 0 min 0 W/m 0,0 km/h (0 Bft) 95,74 %
27.03.2019 20:36 9,9 C 9,4 C 8,9 C 76 % 1031,9 hPa 0,0 l/m 0 min 0 min 0 W/m 3,2 km/h (1 Bft) 97,87 %
27.03.2019 20:38 9,9 C 8,9 C 8,9 C 75 % 1031,9 hPa 0,0 l/m 0 min 0 min 0 W/m 3,2 km/h (1 Bft) 95,74 %
27.03.2019 20:40 9,9 C 8,9 C 8,9 C 76 % 1031,9 hPa 0,0 l/m 0 min 0 min 0 W/m 3,2 km/h (1 Bft) 97,87 %
27.03.2019 20:42 9,9 C 8,9 C 8,9 C 76 % 1031,9 hPa 0,0 l/m 0 min 0 min 0 W/m 0,0 km/h (0 Bft) 97,83 %
27.03.2019 20:44 9,9 C 8,9 C 8,9 C 76 % 1031,9 hPa 0,0 l/m 0 min 0 min 0 W/m 0,0 km/h (0 Bft) 97,87 %
27.03.2019 20:46 9,9 C 8,9 C 8,3 C 76 % 1032,0 hPa 0,0 l/m 0 min 0 min 0 W/m 0,0 km/h (0 Bft) 97,87 %
27.03.2019 20:48 9,9 C 8,9 C 8,3 C 76 % 1031,9 hPa 0,0 l/m 0 min 0 min 0 W/m 0,0 km/h (0 Bft) 97,87 %
27.03.2019 20:50 9,8 C 8,9 C 8,3 C 76 % 1031,9 hPa 0,0 l/m 0 min 0 min 0 W/m 0,0 km/h (0 Bft) 97,87 %
27.03.2019 20:52 9,8 C 8,9 C 8,3 C 76 % 1031,9 hPa 0,0 l/m 0 min 0 min 0 W/m 0,0 km/h (0 Bft) 95,74 %
27.03.2019 20:54 9,8 C 8,9 C 8,3 C 76 % 1031,9 hPa 0,0 l/m 0 min 0 min 0 W/m 0,0 km/h (0 Bft) 97,83 %
27.03.2019 20:56 9,8 C 8,9 C 8,3 C 76 % 1031,9 hPa 0,0 l/m 0 min 0 min 0 W/m 0,0 km/h (0 Bft) 97,87 %
27.03.2019 20:58 9,8 C 8,9 C 8,3 C 77 % 1031,9 hPa 0,0 l/m 0 min 0 min 0 W/m 0,0 km/h (0 Bft) 97,87 %
27.03.2019 21:00 9,8 C 8,9 C 8,3 C 77 % 1031,9 hPa 0,0 l/m 0 min 0 min 0 W/m 0,0 km/h (0 Bft) 97,87 %
27.03.2019 21:02 9,8 C 8,9 C 8,3 C 77 % 1031,9 hPa 0,0 l/m 0 min 0 min 0 W/m 0,0 km/h (0 Bft) 97,87 %
27.03.2019 21:04 9,8 C 8,9 C 8,3 C 77 % 1031,9 hPa 0,0 l/m 0 min 0 min 0 W/m 0,0 km/h (0 Bft) 95,74 %
27.03.2019 21:06 9,8 C 8,9 C 8,3 C 77 % 1031,9 hPa 0,0 l/m 0 min 0 min 0 W/m 0,0 km/h (0 Bft) 95,65 %
27.03.2019 21:08 9,7 C 8,9 C 8,3 C 77 % 1031,9 hPa 0,0 l/m 0 min 0 min 0 W/m 0,0 km/h (0 Bft) 95,74 %
27.03.2019 21:10 9,7 C 8,9 C 8,3 C 77 % 1031,9 hPa 0,0 l/m 0 min 0 min 0 W/m 0,0 km/h (0 Bft) 97,87 %
27.03.2019 21:12 9,7 C 8,9 C 8,3 C 77 % 1031,9 hPa 0,0 l/m 0 min 0 min 0 W/m 0,0 km/h (0 Bft) 97,87 %
27.03.2019 21:14 9,7 C 8,9 C 8,3 C 77 % 1031,9 hPa 0,0 l/m 0 min 0 min 0 W/m 0,0 km/h (0 Bft) 95,74 %
27.03.2019 21:16 9,7 C 8,9 C 8,3 C 77 % 1031,9 hPa 0,0 l/m 0 min 0 min 0 W/m 0,0 km/h (0 Bft) 93,48 %
27.03.2019 21:18 9,7 C 8,9 C 8,3 C 77 % 1031,9 hPa 0,0 l/m 0 min 0 min 0 W/m 0,0 km/h (0 Bft) 95,74 %
27.03.2019 21:20 9,7 C 8,9 C 8,3 C 77 % 1031,9 hPa 0,0 l/m 0 min 0 min 0 W/m 6,4 km/h (2 Bft) 97,87 %
27.03.2019 21:22 9,7 C 8,9 C 8,3 C 77 % 1032,0 hPa 0,0 l/m 0 min 0 min 0 W/m 3,2 km/h (1 Bft) 97,87 %
27.03.2019 21:24 9,7 C 8,9 C 8,3 C 77 % 1032,0 hPa 0,0 l/m 0 min 0 min 0 W/m 0,0 km/h (0 Bft) 97,87 %
27.03.2019 21:26 9,6 C 8,9 C 8,3 C 77 % 1032,0 hPa 0,0 l/m 0 min 0 min 0 W/m 6,4 km/h (2 Bft) 95,74 %
27.03.2019 21:28 9,6 C 8,9 C 8,3 C 77 % 1032,0 hPa 0,0 l/m 0 min 0 min 0 W/m 0,0 km/h (0 Bft) 93,48 %
27.03.2019 21:30 9,6 C 8,9 C 8,3 C 77 % 1032,0 hPa 0,0 l/m 0 min 0 min 0 W/m 0,0 km/h (0 Bft) 95,74 %
27.03.2019 21:32 9,6 C 8,9 C 8,3 C 77 % 1032,0 hPa 0,0 l/m 0 min 0 min 0 W/m 0,0 km/h (0 Bft) 93,62 %
27.03.2019 21:34 9,6 C 8,3 C 7,8 C 77 % 1032,0 hPa 0,0 l/m 0 min 0 min 0 W/m 0,0 km/h (0 Bft) 95,74 %
27.03.2019 21:36 9,6 C 8,3 C 7,8 C 77 % 1032,1 hPa 0,0 l/m 0 min 0 min 0 W/m 3,2 km/h (1 Bft) 95,74 %
27.03.2019 21:38 9,6 C 8,3 C 7,8 C 77 % 1032,0 hPa 0,0 l/m 0 min 0 min 0 W/m 0,0 km/h (0 Bft) 95,74 %
27.03.2019 21:40 9,5 C 8,3 C 7,8 C 77 % 1032,1 hPa 0,0 l/m 0 min 0 min 0 W/m 0,0 km/h (0 Bft) 95,65 %
27.03.2019 21:42 9,5 C 8,3 C 7,8 C 77 % 1032,1 hPa 0,0 l/m 0 min 0 min 0 W/m 0,0 km/h (0 Bft) 95,74 %
27.03.2019 21:44 9,5 C 8,3 C 7,8 C 77 % 1032,0 hPa 0,0 l/m 0 min 0 min 0 W/m 3,2 km/h (1 Bft) 95,74 %
27.03.2019 21:46 9,5 C 8,3 C 7,8 C 77 % 1032,0 hPa 0,0 l/m 0 min 0 min 0 W/m 3,2 km/h (1 Bft) 95,74 %
27.03.2019 21:48 9,4 C 8,3 C 7,8 C 77 % 1032,0 hPa 0,0 l/m 0 min 0 min 0 W/m 3,2 km/h (1 Bft) 93,62 %
27.03.2019 21:50 9,4 C 8,3 C 7,8 C 77 % 1032,0 hPa 0,0 l/m 0 min 0 min 0 W/m 0,0 km/h (0 Bft) 87,23 %
27.03.2019 21:52 9,4 C 8,3 C 7,8 C 77 % 1032,0 hPa 0,0 l/m 0 min 0 min 0 W/m 0,0 km/h (0 Bft) 91,30 %
27.03.2019 21:54 9,4 C 8,3 C 7,8 C 77 % 1032,0 hPa 0,0 l/m 0 min 0 min 0 W/m 0,0 km/h (0 Bft) 95,74 %
27.03.2019 21:56 9,4 C 8,3 C 7,8 C 77 % 1032,0 hPa 0,0 l/m 0 min 0 min 0 W/m 0,0 km/h (0 Bft) 95,74 %
27.03.2019 21:58 9,4 C 8,3 C 7,8 C 77 % 1032,0 hPa 0,0 l/m 0 min 0 min 0 W/m 0,0 km/h (0 Bft) 95,74 %
27.03.2019 22:00 9,4 C 8,3 C 7,8 C 77 % 1032,0 hPa 0,0 l/m 0 min 0 min 0 W/m 0,0 km/h (0 Bft) 95,74 %
27.03.2019 22:02 9,4 C 8,3 C 7,8 C 77 % 1032,0 hPa 0,0 l/m 0 min 0 min 0 W/m 0,0 km/h (0 Bft) 95,74 %
27.03.2019 22:04 9,4 C 8,3 C 7,8 C 77 % 1032,0 hPa 0,0 l/m 0 min 0 min 0 W/m 0,0 km/h (0 Bft) 97,83 %
27.03.2019 22:06 9,3 C 8,3 C 7,8 C 77 % 1032,0 hPa 0,0 l/m 0 min 0 min 0 W/m 0,0 km/h (0 Bft) 93,62 %
27.03.2019 22:08 9,3 C 8,3 C 7,8 C 77 % 1032,0 hPa 0,0 l/m 0 min 0 min 0 W/m 0,0 km/h (0 Bft) 97,87 %
27.03.2019 22:10 9,3 C 8,3 C 7,8 C 77 % 1032,0 hPa 0,0 l/m 0 min 0 min 0 W/m 0,0 km/h (0 Bft) 97,87 %
27.03.2019 22:12 9,3 C 8,3 C 7,8 C 77 % 1032,0 hPa 0,0 l/m 0 min 0 min 0 W/m 0,0 km/h (0 Bft) 100,00 %
27.03.2019 22:14 9,3 C 8,3 C 7,8 C 77 % 1032,0 hPa 0,0 l/m 0 min 0 min 0 W/m 0,0 km/h (0 Bft) 97,87 %
27.03.2019 22:16 9,3 C 8,3 C 7,8 C 78 % 1032,0 hPa 0,0 l/m 0 min 0 min 0 W/m 0,0 km/h (0 Bft) 100,00 %
27.03.2019 22:18 9,3 C 8,3 C 7,8 C 78 % 1032,0 hPa 0,0 l/m 0 min 0 min 0 W/m 0,0 km/h (0 Bft) 100,00 %
27.03.2019 22:20 9,3 C 8,3 C 7,8 C 78 % 1032,0 hPa 0,0 l/m 0 min 0 min 0 W/m 0,0 km/h (0 Bft) 100,00 %
27.03.2019 22:22 9,3 C 8,3 C 7,8 C 78 % 1031,9 hPa 0,0 l/m 0 min 0 min 0 W/m 0,0 km/h (0 Bft) 100,00 %
27.03.2019 22:24 9,3 C 8,3 C 7,8 C 78 % 1031,9 hPa 0,0 l/m 0 min 0 min 0 W/m 0,0 km/h (0 Bft) 97,87 %
27.03.2019 22:26 9,2 C 8,3 C 7,8 C 78 % 1032,0 hPa 0,0 l/m 0 min 0 min 0 W/m 0,0 km/h (0 Bft) 100,00 %
27.03.2019 22:28 9,2 C 8,3 C 7,8 C 78 % 1032,0 hPa 0,0 l/m 0 min 0 min 0 W/m 0,0 km/h (0 Bft) 100,00 %
27.03.2019 22:30 9,2 C 8,3 C 7,8 C 78 % 1031,9 hPa 0,0 l/m 0 min 0 min 0 W/m 0,0 km/h (0 Bft) 100,00 %
27.03.2019 22:32 9,2 C 8,3 C 7,8 C 78 % 1031,9 hPa 0,0 l/m 0 min 0 min 0 W/m 0,0 km/h (0 Bft) 97,87 %
27.03.2019 22:34 9,2 C 8,3 C 7,8 C 78 % 1031,9 hPa 0,0 l/m 0 min 0 min 0 W/m 0,0 km/h (0 Bft) 100,00 %
27.03.2019 22:36 9,2 C 8,3 C 7,8 C 79 % 1032,0 hPa 0,0 l/m 0 min 0 min 0 W/m 0,0 km/h (0 Bft) 100,00 %
27.03.2019 22:38 9,2 C 8,3 C 7,8 C 79 % 1032,0 hPa 0,0 l/m 0 min 0 min 0 W/m 0,0 km/h (0 Bft) 100,00 %
27.03.2019 22:40 9,2 C 8,3 C 7,8 C 79 % 1031,9 hPa 0,0 l/m 0 min 0 min 0 W/m 0,0 km/h (0 Bft) 100,00 %
27.03.2019 22:42 9,2 C 8,3 C 7,8 C 79 % 1031,9 hPa 0,0 l/m 0 min 0 min 0 W/m 0,0 km/h (0 Bft) 100,00 %
27.03.2019 22:44 9,1 C 8,3 C 7,8 C 79 % 1031,9 hPa 0,0 l/m 0 min 0 min 0 W/m 0,0 km/h (0 Bft) 100,00 %
27.03.2019 22:46 9,1 C 8,3 C 7,8 C 79 % 1032,0 hPa 0,0 l/m 0 min 0 min 0 W/m 3,2 km/h (1 Bft) 97,87 %
27.03.2019 22:48 9,1 C 8,3 C 7,8 C 79 % 1032,0 hPa 0,0 l/m 0 min 0 min 0 W/m 0,0 km/h (0 Bft) 100,00 %
27.03.2019 22:50 9,1 C 8,3 C 7,8 C 79 % 1032,0 hPa 0,0 l/m 0 min 0 min 0 W/m 0,0 km/h (0 Bft) 100,00 %
27.03.2019 22:52 9,1 C 8,3 C 7,8 C 79 % 1032,0 hPa 0,0 l/m 0 min 0 min 0 W/m 0,0 km/h (0 Bft) 100,00 %
27.03.2019 22:54 9,1 C 8,3 C 7,8 C 79 % 1032,0 hPa 0,0 l/m 0 min 0 min 0 W/m 0,0 km/h (0 Bft) 100,00 %
27.03.2019 22:56 9,1 C 8,3 C 7,8 C 79 % 1032,0 hPa 0,0 l/m 0 min 0 min 0 W/m 0,0 km/h (0 Bft) 97,87 %
27.03.2019 22:58 9,1 C 8,3 C 7,8 C 79 % 1032,0 hPa 0,0 l/m 0 min 0 min 0 W/m 0,0 km/h (0 Bft) 100,00 %
27.03.2019 23:00 9,1 C 8,3 C 7,8 C 79 % 1032,0 hPa 0,0 l/m 0 min 0 min 0 W/m 0,0 km/h (0 Bft) 100,00 %
27.03.2019 23:02 9,0 C 8,3 C 7,8 C 79 % 1032,1 hPa 0,0 l/m 0 min 0 min 0 W/m 0,0 km/h (0 Bft) 97,83 %
27.03.2019 23:04 9,0 C 8,3 C 7,8 C 79 % 1032,0 hPa 0,0 l/m 0 min 0 min 0 W/m 0,0 km/h (0 Bft) 100,00 %
27.03.2019 23:06 9,0 C 8,3 C 7,8 C 79 % 1032,0 hPa 0,0 l/m 0 min 0 min 0 W/m 0,0 km/h (0 Bft) 97,87 %
27.03.2019 23:08 9,0 C 8,3 C 7,8 C 79 % 1032,0 hPa 0,0 l/m 0 min 0 min 0 W/m 0,0 km/h (0 Bft) 100,00 %
27.03.2019 23:10 9,0 C 8,3 C 7,8 C 79 % 1032,1 hPa 0,0 l/m 0 min 0 min 0 W/m 0,0 km/h (0 Bft) 100,00 %
27.03.2019 23:12 9,0 C 8,3 C 7,8 C 79 % 1032,0 hPa 0,0 l/m 0 min 0 min 0 W/m 0,0 km/h (0 Bft) 100,00 %
27.03.2019 23:14 9,0 C 8,3 C 7,8 C 80 % 1032,1 hPa 0,0 l/m 0 min 0 min 0 W/m 0,0 km/h (0 Bft) 100,00 %
27.03.2019 23:16 9,0 C 8,3 C 7,8 C 80 % 1032,1 hPa 0,0 l/m 0 min 0 min 0 W/m 0,0 km/h (0 Bft) 100,00 %
27.03.2019 23:18 8,9 C 8,3 C 7,8 C 80 % 1032,1 hPa 0,0 l/m 0 min 0 min 0 W/m 0,0 km/h (0 Bft) 97,87 %
27.03.2019 23:20 8,9 C 8,3 C 7,8 C 80 % 1032,1 hPa 0,0 l/m 0 min 0 min 0 W/m 0,0 km/h (0 Bft) 100,00 %
27.03.2019 23:22 8,9 C 8,3 C 7,8 C 80 % 1032,1 hPa 0,0 l/m 0 min 0 min 0 W/m 0,0 km/h (0 Bft) 100,00 %
27.03.2019 23:24 8,9 C 8,3 C 7,8 C 80 % 1032,1 hPa 0,0 l/m 0 min 0 min 0 W/m 0,0 km/h (0 Bft) 100,00 %
27.03.2019 23:26 8,9 C 8,3 C 7,2 C 80 % 1032,1 hPa 0,0 l/m 0 min 0 min 0 W/m 0,0 km/h (0 Bft) 100,00 %
27.03.2019 23:28 8,9 C 8,3 C 7,2 C 80 % 1032,2 hPa 0,0 l/m 0 min 0 min 0 W/m 0,0 km/h (0 Bft) 100,00 %
27.03.2019 23:30 8,9 C 8,3 C 7,2 C 80 % 1032,2 hPa 0,0 l/m 0 min 0 min 0 W/m 0,0 km/h (0 Bft) 100,00 %
27.03.2019 23:32 8,9 C 7,8 C 7,2 C 80 % 1032,2 hPa 0,0 l/m 0 min 0 min 0 W/m 0,0 km/h (0 Bft) 97,87 %
27.03.2019 23:34 8,9 C 7,8 C 7,2 C 80 % 1032,2 hPa 0,0 l/m 0 min 0 min 0 W/m 0,0 km/h (0 Bft) 97,87 %
27.03.2019 23:36 8,9 C 7,8 C 7,2 C 80 % 1032,2 hPa 0,0 l/m 0 min 0 min 0 W/m 0,0 km/h (0 Bft) 100,00 %
27.03.2019 23:38 8,9 C 7,8 C 7,2 C 80 % 1032,2 hPa 0,0 l/m 0 min 0 min 0 W/m 0,0 km/h (0 Bft) 97,87 %
27.03.2019 23:40 8,9 C 7,8 C 7,2 C 80 % 1032,2 hPa 0,0 l/m 0 min 0 min 0 W/m 3,2 km/h (1 Bft) 100,00 %
27.03.2019 23:42 8,9 C 7,8 C 7,2 C 80 % 1032,2 hPa 0,0 l/m 0 min 0 min 0 W/m 0,0 km/h (0 Bft) 97,87 %
27.03.2019 23:44 8,9 C 7,8 C 7,2 C 80 % 1032,2 hPa 0,0 l/m 0 min 0 min 0 W/m 0,0 km/h (0 Bft) 97,87 %
27.03.2019 23:46 8,9 C 7,8 C 7,2 C 80 % 1032,2 hPa 0,0 l/m 0 min 0 min 0 W/m 0,0 km/h (0 Bft) 100,00 %
27.03.2019 23:48 8,9 C 7,8 C 7,2 C 80 % 1032,2 hPa 0,0 l/m 0 min 0 min 0 W/m 0,0 km/h (0 Bft) 100,00 %
27.03.2019 23:50 8,8 C 7,8 C 7,2 C 80 % 1032,1 hPa 0,0 l/m 0 min 0 min 0 W/m 0,0 km/h (0 Bft) 97,87 %
27.03.2019 23:52 8,8 C 7,8 C 7,2 C 81 % 1032,2 hPa 0,0 l/m 0 min 0 min 0 W/m 0,0 km/h (0 Bft) 97,87 %
27.03.2019 23:54 8,8 C 7,8 C 7,2 C 81 % 1032,2 hPa 0,0 l/m 0 min 0 min 0 W/m 0,0 km/h (0 Bft) 95,74 %
27.03.2019 23:56 8,8 C 7,8 C 7,2 C 81 % 1032,2 hPa 0,0 l/m 0 min 0 min 0 W/m 0,0 km/h (0 Bft) 97,87 %
27.03.2019 23:58 8,8 C 7,8 C 7,2 C 81 % 1032,2 hPa 0,0 l/m 0 min 0 min 0 W/m 0,0 km/h (0 Bft) 95,74 %
_ Min-Zeit 05:50 04:30 04:20 14:18 04:20 - - - - 00:04 14:46
Minimum _ 3,5 C 2,2 C 1,7 C 63 % 1029,2 hPa - - - - 0,0 km/h (0 Bft) 44,44 %
_ Max-Zeit 14:28 12:04 10:12 08:48 23:28 00:00 12:08 00:00 10:12 11:20 00:04
Maximum _ 12,8 C 20,0 C 15,6 C 96 % 1032,2 hPa 0,0 l/m 4 min 0 min 722 W/m 16,1 km/h
SW (3 Bft)
100,00 %
Durchschnitt _ 8,4 C 8,8 C 7,7 C 79 % 1030,9 hPa #0,0 l/m #3:26 h #0 min. 198 W/m 3,4 km/h (1 Bft) 97,40 %
© 2019 W. Hausmann